<?xml version="1.0" encoding="UTF-8" standalone="no" ?>
<gpx xmlns="http://www.topografix.com/GPX/1/1" xmlns:xsi="http://www.w3.org/2001/XMLSchema-instance" xsi:schemaLocation="http://www.topografix.com/GPX/1/1 http://www.topografix.com/GPX/1/1/gpx.xsd" version="1.1" creator="VisuGPX - https://www.visugpx.com">
  <metadata>
    <name>ERMITAGE</name>
    <desc><![CDATA[Parcours d\'entraînement trail au départ d\'Igon 64800, circuit Ermitage.]]></desc>
  </metadata>
  <trk>
    <name><![CDATA[ERMITAGE_1]]></name>
    <trkseg>
      <trkpt lat="43.16025" lon="-0.23668">
        <ele>271</ele>
        <time>2013-02-15T16:53:55Z</time>
      </trkpt>
      <trkpt lat="43.16021" lon="-0.23689">
        <ele>271</ele>
        <time>2013-02-15T16:54:00Z</time>
      </trkpt>
      <trkpt lat="43.16016" lon="-0.23707">
        <ele>270.7</ele>
        <time>2013-02-15T16:54:05Z</time>
      </trkpt>
      <trkpt lat="43.16009" lon="-0.23728">
        <ele>270.7</ele>
        <time>2013-02-15T16:54:10Z</time>
      </trkpt>
      <trkpt lat="43.16004" lon="-0.23746">
        <ele>270.8</ele>
        <time>2013-02-15T16:54:15Z</time>
      </trkpt>
      <trkpt lat="43.16" lon="-0.23761">
        <ele>271</ele>
        <time>2013-02-15T16:54:20Z</time>
      </trkpt>
      <trkpt lat="43.15994" lon="-0.23778">
        <ele>271</ele>
        <time>2013-02-15T16:54:25Z</time>
      </trkpt>
      <trkpt lat="43.15989" lon="-0.23794">
        <ele>271</ele>
        <time>2013-02-15T16:54:30Z</time>
      </trkpt>
      <trkpt lat="43.15983" lon="-0.23812">
        <ele>270.8</ele>
        <time>2013-02-15T16:54:35Z</time>
      </trkpt>
      <trkpt lat="43.15977" lon="-0.23833">
        <ele>270</ele>
        <time>2013-02-15T16:54:40Z</time>
      </trkpt>
      <trkpt lat="43.15971" lon="-0.23847">
        <ele>269.5</ele>
        <time>2013-02-15T16:54:45Z</time>
      </trkpt>
      <trkpt lat="43.15966" lon="-0.23858">
        <ele>269.3</ele>
        <time>2013-02-15T16:54:50Z</time>
      </trkpt>
      <trkpt lat="43.15959" lon="-0.23872">
        <ele>270.1</ele>
        <time>2013-02-15T16:54:55Z</time>
      </trkpt>
      <trkpt lat="43.15953" lon="-0.23886">
        <ele>270.8</ele>
        <time>2013-02-15T16:55:00Z</time>
      </trkpt>
      <trkpt lat="43.15944" lon="-0.23897">
        <ele>271</ele>
        <time>2013-02-15T16:55:05Z</time>
      </trkpt>
      <trkpt lat="43.15931" lon="-0.23901">
        <ele>271</ele>
        <time>2013-02-15T16:55:10Z</time>
      </trkpt>
      <trkpt lat="43.15916" lon="-0.23903">
        <ele>271</ele>
        <time>2013-02-15T16:55:15Z</time>
      </trkpt>
      <trkpt lat="43.15904" lon="-0.23903">
        <ele>271</ele>
        <time>2013-02-15T16:55:20Z</time>
      </trkpt>
      <trkpt lat="43.15894" lon="-0.23905">
        <ele>271</ele>
        <time>2013-02-15T16:55:25Z</time>
      </trkpt>
      <trkpt lat="43.15882" lon="-0.23907">
        <ele>271.2</ele>
        <time>2013-02-15T16:55:30Z</time>
      </trkpt>
      <trkpt lat="43.15869" lon="-0.23909">
        <ele>271.5</ele>
        <time>2013-02-15T16:55:35Z</time>
      </trkpt>
      <trkpt lat="43.15856" lon="-0.23912">
        <ele>271.9</ele>
        <time>2013-02-15T16:55:40Z</time>
      </trkpt>
      <trkpt lat="43.15842" lon="-0.23913">
        <ele>272</ele>
        <time>2013-02-15T16:55:45Z</time>
      </trkpt>
      <trkpt lat="43.1583" lon="-0.23911">
        <ele>272</ele>
        <time>2013-02-15T16:55:50Z</time>
      </trkpt>
      <trkpt lat="43.1582" lon="-0.23907">
        <ele>272</ele>
        <time>2013-02-15T16:55:55Z</time>
      </trkpt>
      <trkpt lat="43.15808" lon="-0.23902">
        <ele>272</ele>
        <time>2013-02-15T16:56:00Z</time>
      </trkpt>
      <trkpt lat="43.15795" lon="-0.23896">
        <ele>272.3</ele>
        <time>2013-02-15T16:56:05Z</time>
      </trkpt>
      <trkpt lat="43.15783" lon="-0.23893">
        <ele>272.7</ele>
        <time>2013-02-15T16:56:10Z</time>
      </trkpt>
      <trkpt lat="43.15768" lon="-0.23888">
        <ele>273</ele>
        <time>2013-02-15T16:56:15Z</time>
      </trkpt>
      <trkpt lat="43.15757" lon="-0.23883">
        <ele>272.9</ele>
        <time>2013-02-15T16:56:20Z</time>
      </trkpt>
      <trkpt lat="43.15747" lon="-0.23878">
        <ele>273</ele>
        <time>2013-02-15T16:56:25Z</time>
      </trkpt>
      <trkpt lat="43.15736" lon="-0.23873">
        <ele>273</ele>
        <time>2013-02-15T16:56:30Z</time>
      </trkpt>
      <trkpt lat="43.15724" lon="-0.23868">
        <ele>273</ele>
        <time>2013-02-15T16:56:35Z</time>
      </trkpt>
      <trkpt lat="43.15711" lon="-0.23863">
        <ele>273.4</ele>
        <time>2013-02-15T16:56:40Z</time>
      </trkpt>
      <trkpt lat="43.15699" lon="-0.23858">
        <ele>273.9</ele>
        <time>2013-02-15T16:56:45Z</time>
      </trkpt>
      <trkpt lat="43.15684" lon="-0.23853">
        <ele>274</ele>
        <time>2013-02-15T16:56:50Z</time>
      </trkpt>
      <trkpt lat="43.15673" lon="-0.23847">
        <ele>274</ele>
        <time>2013-02-15T16:56:55Z</time>
      </trkpt>
      <trkpt lat="43.15664" lon="-0.23843">
        <ele>274</ele>
        <time>2013-02-15T16:57:00Z</time>
      </trkpt>
      <trkpt lat="43.15652" lon="-0.23838">
        <ele>274</ele>
        <time>2013-02-15T16:57:05Z</time>
      </trkpt>
      <trkpt lat="43.1564" lon="-0.23833">
        <ele>274</ele>
        <time>2013-02-15T16:57:10Z</time>
      </trkpt>
      <trkpt lat="43.15628" lon="-0.23829">
        <ele>274.4</ele>
        <time>2013-02-15T16:57:15Z</time>
      </trkpt>
      <trkpt lat="43.15613" lon="-0.23823">
        <ele>274.9</ele>
        <time>2013-02-15T16:57:20Z</time>
      </trkpt>
      <trkpt lat="43.15602" lon="-0.23818">
        <ele>275</ele>
        <time>2013-02-15T16:57:25Z</time>
      </trkpt>
      <trkpt lat="43.15591" lon="-0.23814">
        <ele>275</ele>
        <time>2013-02-15T16:57:30Z</time>
      </trkpt>
      <trkpt lat="43.15578" lon="-0.2381">
        <ele>275</ele>
        <time>2013-02-15T16:57:35Z</time>
      </trkpt>
      <trkpt lat="43.15563" lon="-0.2381">
        <ele>275</ele>
        <time>2013-02-15T16:57:40Z</time>
      </trkpt>
      <trkpt lat="43.15549" lon="-0.23815">
        <ele>275.3</ele>
        <time>2013-02-15T16:57:45Z</time>
      </trkpt>
      <trkpt lat="43.15536" lon="-0.23826">
        <ele>276.2</ele>
        <time>2013-02-15T16:57:50Z</time>
      </trkpt>
      <trkpt lat="43.15525" lon="-0.23835">
        <ele>277.2</ele>
        <time>2013-02-15T16:57:55Z</time>
      </trkpt>
      <trkpt lat="43.15514" lon="-0.23845">
        <ele>277.9</ele>
        <time>2013-02-15T16:58:00Z</time>
      </trkpt>
      <trkpt lat="43.15506" lon="-0.23856">
        <ele>278.6</ele>
        <time>2013-02-15T16:58:05Z</time>
      </trkpt>
      <trkpt lat="43.15497" lon="-0.23869">
        <ele>279.2</ele>
        <time>2013-02-15T16:58:10Z</time>
      </trkpt>
      <trkpt lat="43.15488" lon="-0.23881">
        <ele>279.9</ele>
        <time>2013-02-15T16:58:15Z</time>
      </trkpt>
      <trkpt lat="43.15478" lon="-0.23893">
        <ele>280.6</ele>
        <time>2013-02-15T16:58:20Z</time>
      </trkpt>
      <trkpt lat="43.15467" lon="-0.23908">
        <ele>281.7</ele>
        <time>2013-02-15T16:58:25Z</time>
      </trkpt>
      <trkpt lat="43.15459" lon="-0.23916">
        <ele>282.9</ele>
        <time>2013-02-15T16:58:30Z</time>
      </trkpt>
      <trkpt lat="43.15456" lon="-0.23908">
        <ele>282.9</ele>
        <time>2013-02-15T16:58:35Z</time>
      </trkpt>
      <trkpt lat="43.1545" lon="-0.23898">
        <ele>283.1</ele>
        <time>2013-02-15T16:58:40Z</time>
      </trkpt>
      <trkpt lat="43.15445" lon="-0.23884">
        <ele>282.6</ele>
        <time>2013-02-15T16:58:45Z</time>
      </trkpt>
      <trkpt lat="43.15439" lon="-0.2387">
        <ele>283.7</ele>
        <time>2013-02-15T16:58:50Z</time>
      </trkpt>
      <trkpt lat="43.1543" lon="-0.23852">
        <ele>284.5</ele>
        <time>2013-02-15T16:58:55Z</time>
      </trkpt>
      <trkpt lat="43.15424" lon="-0.2384">
        <ele>283.5</ele>
        <time>2013-02-15T16:59:00Z</time>
      </trkpt>
      <trkpt lat="43.15417" lon="-0.23827">
        <ele>282.5</ele>
        <time>2013-02-15T16:59:05Z</time>
      </trkpt>
      <trkpt lat="43.15411" lon="-0.23815">
        <ele>283.8</ele>
        <time>2013-02-15T16:59:10Z</time>
      </trkpt>
      <trkpt lat="43.15401" lon="-0.23801">
        <ele>284.5</ele>
        <time>2013-02-15T16:59:15Z</time>
      </trkpt>
      <trkpt lat="43.15392" lon="-0.23788">
        <ele>283.9</ele>
        <time>2013-02-15T16:59:20Z</time>
      </trkpt>
      <trkpt lat="43.15381" lon="-0.2378">
        <ele>283.7</ele>
        <time>2013-02-15T16:59:25Z</time>
      </trkpt>
      <trkpt lat="43.15367" lon="-0.23773">
        <ele>283.1</ele>
        <time>2013-02-15T16:59:30Z</time>
      </trkpt>
      <trkpt lat="43.15355" lon="-0.23767">
        <ele>282.5</ele>
        <time>2013-02-15T16:59:35Z</time>
      </trkpt>
      <trkpt lat="43.15345" lon="-0.23764">
        <ele>282.2</ele>
        <time>2013-02-15T16:59:40Z</time>
      </trkpt>
      <trkpt lat="43.15333" lon="-0.23763">
        <ele>282.3</ele>
        <time>2013-02-15T16:59:45Z</time>
      </trkpt>
      <trkpt lat="43.1532" lon="-0.23764">
        <ele>282.1</ele>
        <time>2013-02-15T16:59:50Z</time>
      </trkpt>
      <trkpt lat="43.15308" lon="-0.23769">
        <ele>282.8</ele>
        <time>2013-02-15T16:59:55Z</time>
      </trkpt>
      <trkpt lat="43.15294" lon="-0.23775">
        <ele>283</ele>
        <time>2013-02-15T17:00:00Z</time>
      </trkpt>
      <trkpt lat="43.15283" lon="-0.23782">
        <ele>284</ele>
        <time>2013-02-15T17:00:05Z</time>
      </trkpt>
      <trkpt lat="43.15273" lon="-0.23787">
        <ele>284.2</ele>
        <time>2013-02-15T17:00:10Z</time>
      </trkpt>
      <trkpt lat="43.1526" lon="-0.23796">
        <ele>283.7</ele>
        <time>2013-02-15T17:00:15Z</time>
      </trkpt>
      <trkpt lat="43.15249" lon="-0.23801">
        <ele>282</ele>
        <time>2013-02-15T17:00:20Z</time>
      </trkpt>
      <trkpt lat="43.15238" lon="-0.23808">
        <ele>281.9</ele>
        <time>2013-02-15T17:00:25Z</time>
      </trkpt>
      <trkpt lat="43.15227" lon="-0.23816">
        <ele>282</ele>
        <time>2013-02-15T17:00:30Z</time>
      </trkpt>
      <trkpt lat="43.15215" lon="-0.23823">
        <ele>282.4</ele>
        <time>2013-02-15T17:00:35Z</time>
      </trkpt>
      <trkpt lat="43.15204" lon="-0.23831">
        <ele>283.3</ele>
        <time>2013-02-15T17:00:40Z</time>
      </trkpt>
      <trkpt lat="43.15194" lon="-0.23837">
        <ele>283.6</ele>
        <time>2013-02-15T17:00:45Z</time>
      </trkpt>
      <trkpt lat="43.15181" lon="-0.23847">
        <ele>283.9</ele>
        <time>2013-02-15T17:00:50Z</time>
      </trkpt>
      <trkpt lat="43.15171" lon="-0.23855">
        <ele>283.8</ele>
        <time>2013-02-15T17:00:55Z</time>
      </trkpt>
      <trkpt lat="43.15159" lon="-0.23863">
        <ele>283.1</ele>
        <time>2013-02-15T17:01:00Z</time>
      </trkpt>
      <trkpt lat="43.15145" lon="-0.23872">
        <ele>282.5</ele>
        <time>2013-02-15T17:01:05Z</time>
      </trkpt>
      <trkpt lat="43.15136" lon="-0.2388">
        <ele>282.8</ele>
        <time>2013-02-15T17:01:10Z</time>
      </trkpt>
      <trkpt lat="43.15128" lon="-0.23888">
        <ele>282.9</ele>
        <time>2013-02-15T17:01:15Z</time>
      </trkpt>
      <trkpt lat="43.15119" lon="-0.23896">
        <ele>283.7</ele>
        <time>2013-02-15T17:01:20Z</time>
      </trkpt>
      <trkpt lat="43.15113" lon="-0.23899">
        <ele>283.5</ele>
        <time>2013-02-15T17:01:25Z</time>
      </trkpt>
      <trkpt lat="43.1511" lon="-0.23894">
        <ele>281.6</ele>
        <time>2013-02-15T17:01:30Z</time>
      </trkpt>
      <trkpt lat="43.15109" lon="-0.2389">
        <ele>280.2</ele>
        <time>2013-02-15T17:01:35Z</time>
      </trkpt>
      <trkpt lat="43.1511" lon="-0.23888">
        <ele>279.9</ele>
        <time>2013-02-15T17:01:40Z</time>
      </trkpt>
      <trkpt lat="43.1511" lon="-0.23888">
        <ele>279.9</ele>
        <time>2013-02-15T17:01:45Z</time>
      </trkpt>
      <trkpt lat="43.15109" lon="-0.23889">
        <ele>279.9</ele>
        <time>2013-02-15T17:01:50Z</time>
      </trkpt>
      <trkpt lat="43.15109" lon="-0.23888">
        <ele>279.9</ele>
        <time>2013-02-15T17:01:55Z</time>
      </trkpt>
      <trkpt lat="43.15109" lon="-0.23884">
        <ele>279.7</ele>
        <time>2013-02-15T17:02:00Z</time>
      </trkpt>
      <trkpt lat="43.15108" lon="-0.23883">
        <ele>279.7</ele>
        <time>2013-02-15T17:02:05Z</time>
      </trkpt>
      <trkpt lat="43.15102" lon="-0.23898">
        <ele>282</ele>
        <time>2013-02-15T17:02:10Z</time>
      </trkpt>
      <trkpt lat="43.15093" lon="-0.23909">
        <ele>283.1</ele>
        <time>2013-02-15T17:02:15Z</time>
      </trkpt>
      <trkpt lat="43.15084" lon="-0.23917">
        <ele>282.4</ele>
        <time>2013-02-15T17:02:20Z</time>
      </trkpt>
      <trkpt lat="43.15073" lon="-0.23929">
        <ele>284.7</ele>
        <time>2013-02-15T17:02:25Z</time>
      </trkpt>
      <trkpt lat="43.15061" lon="-0.23938">
        <ele>284.8</ele>
        <time>2013-02-15T17:02:30Z</time>
      </trkpt>
      <trkpt lat="43.15049" lon="-0.23948">
        <ele>284.7</ele>
        <time>2013-02-15T17:02:35Z</time>
      </trkpt>
      <trkpt lat="43.15038" lon="-0.2396">
        <ele>285.5</ele>
        <time>2013-02-15T17:02:40Z</time>
      </trkpt>
      <trkpt lat="43.15029" lon="-0.23969">
        <ele>284.8</ele>
        <time>2013-02-15T17:02:45Z</time>
      </trkpt>
      <trkpt lat="43.15024" lon="-0.23976">
        <ele>285.4</ele>
        <time>2013-02-15T17:02:50Z</time>
      </trkpt>
      <trkpt lat="43.15015" lon="-0.23987">
        <ele>286.1</ele>
        <time>2013-02-15T17:02:55Z</time>
      </trkpt>
      <trkpt lat="43.15005" lon="-0.23997">
        <ele>285.5</ele>
        <time>2013-02-15T17:03:00Z</time>
      </trkpt>
      <trkpt lat="43.14998" lon="-0.24008">
        <ele>285.8</ele>
        <time>2013-02-15T17:03:05Z</time>
      </trkpt>
      <trkpt lat="43.14989" lon="-0.24018">
        <ele>285.6</ele>
        <time>2013-02-15T17:03:10Z</time>
      </trkpt>
      <trkpt lat="43.14981" lon="-0.2403">
        <ele>284.9</ele>
        <time>2013-02-15T17:03:15Z</time>
      </trkpt>
      <trkpt lat="43.14973" lon="-0.24042">
        <ele>284.2</ele>
        <time>2013-02-15T17:03:20Z</time>
      </trkpt>
      <trkpt lat="43.14966" lon="-0.2405">
        <ele>284.4</ele>
        <time>2013-02-15T17:03:25Z</time>
      </trkpt>
      <trkpt lat="43.14956" lon="-0.24064">
        <ele>285</ele>
        <time>2013-02-15T17:03:30Z</time>
      </trkpt>
      <trkpt lat="43.14946" lon="-0.24075">
        <ele>284.6</ele>
        <time>2013-02-15T17:03:35Z</time>
      </trkpt>
      <trkpt lat="43.14938" lon="-0.24089">
        <ele>285.6</ele>
        <time>2013-02-15T17:03:40Z</time>
      </trkpt>
      <trkpt lat="43.14924" lon="-0.24108">
        <ele>285.5</ele>
        <time>2013-02-15T17:03:45Z</time>
      </trkpt>
      <trkpt lat="43.14915" lon="-0.24122">
        <ele>285.9</ele>
        <time>2013-02-15T17:03:50Z</time>
      </trkpt>
      <trkpt lat="43.14906" lon="-0.24129">
        <ele>285.7</ele>
        <time>2013-02-15T17:03:55Z</time>
      </trkpt>
      <trkpt lat="43.14897" lon="-0.24141">
        <ele>285.3</ele>
        <time>2013-02-15T17:04:00Z</time>
      </trkpt>
      <trkpt lat="43.14889" lon="-0.24154">
        <ele>285.6</ele>
        <time>2013-02-15T17:04:05Z</time>
      </trkpt>
      <trkpt lat="43.14882" lon="-0.24167">
        <ele>286.4</ele>
        <time>2013-02-15T17:04:10Z</time>
      </trkpt>
      <trkpt lat="43.14872" lon="-0.24184">
        <ele>287.1</ele>
        <time>2013-02-15T17:04:15Z</time>
      </trkpt>
      <trkpt lat="43.14864" lon="-0.24199">
        <ele>286.7</ele>
        <time>2013-02-15T17:04:20Z</time>
      </trkpt>
      <trkpt lat="43.14856" lon="-0.24213">
        <ele>286.7</ele>
        <time>2013-02-15T17:04:25Z</time>
      </trkpt>
      <trkpt lat="43.14851" lon="-0.24222">
        <ele>286.7</ele>
        <time>2013-02-15T17:04:30Z</time>
      </trkpt>
      <trkpt lat="43.14844" lon="-0.24238">
        <ele>287.2</ele>
        <time>2013-02-15T17:04:35Z</time>
      </trkpt>
      <trkpt lat="43.14835" lon="-0.24255">
        <ele>286.1</ele>
        <time>2013-02-15T17:04:40Z</time>
      </trkpt>
      <trkpt lat="43.14828" lon="-0.24269">
        <ele>285.4</ele>
        <time>2013-02-15T17:04:45Z</time>
      </trkpt>
      <trkpt lat="43.14817" lon="-0.2429">
        <ele>286</ele>
        <time>2013-02-15T17:04:50Z</time>
      </trkpt>
      <trkpt lat="43.14811" lon="-0.24306">
        <ele>287.1</ele>
        <time>2013-02-15T17:04:55Z</time>
      </trkpt>
      <trkpt lat="43.14805" lon="-0.24312">
        <ele>286.4</ele>
        <time>2013-02-15T17:05:00Z</time>
      </trkpt>
      <trkpt lat="43.14803" lon="-0.24317">
        <ele>286.5</ele>
        <time>2013-02-15T17:05:05Z</time>
      </trkpt>
      <trkpt lat="43.14794" lon="-0.24326">
        <ele>286.6</ele>
        <time>2013-02-15T17:05:10Z</time>
      </trkpt>
      <trkpt lat="43.14787" lon="-0.24338">
        <ele>287.3</ele>
        <time>2013-02-15T17:05:15Z</time>
      </trkpt>
      <trkpt lat="43.14782" lon="-0.24353">
        <ele>286.3</ele>
        <time>2013-02-15T17:05:20Z</time>
      </trkpt>
      <trkpt lat="43.1478" lon="-0.24366">
        <ele>285.9</ele>
        <time>2013-02-15T17:05:25Z</time>
      </trkpt>
      <trkpt lat="43.14778" lon="-0.24375">
        <ele>286</ele>
        <time>2013-02-15T17:05:30Z</time>
      </trkpt>
      <trkpt lat="43.14773" lon="-0.24391">
        <ele>286.3</ele>
        <time>2013-02-15T17:05:35Z</time>
      </trkpt>
      <trkpt lat="43.14769" lon="-0.24404">
        <ele>286.4</ele>
        <time>2013-02-15T17:05:40Z</time>
      </trkpt>
      <trkpt lat="43.14768" lon="-0.24415">
        <ele>286.7</ele>
        <time>2013-02-15T17:05:45Z</time>
      </trkpt>
      <trkpt lat="43.14769" lon="-0.24425">
        <ele>287.5</ele>
        <time>2013-02-15T17:05:50Z</time>
      </trkpt>
      <trkpt lat="43.1477" lon="-0.24436">
        <ele>288.2</ele>
        <time>2013-02-15T17:05:55Z</time>
      </trkpt>
      <trkpt lat="43.14769" lon="-0.24448">
        <ele>288.7</ele>
        <time>2013-02-15T17:06:00Z</time>
      </trkpt>
      <trkpt lat="43.14768" lon="-0.24458">
        <ele>289</ele>
        <time>2013-02-15T17:06:05Z</time>
      </trkpt>
      <trkpt lat="43.14768" lon="-0.24471">
        <ele>289.7</ele>
        <time>2013-02-15T17:06:10Z</time>
      </trkpt>
      <trkpt lat="43.14766" lon="-0.24483">
        <ele>289.8</ele>
        <time>2013-02-15T17:06:15Z</time>
      </trkpt>
      <trkpt lat="43.14767" lon="-0.24494">
        <ele>290.7</ele>
        <time>2013-02-15T17:06:20Z</time>
      </trkpt>
      <trkpt lat="43.14765" lon="-0.24509">
        <ele>290.9</ele>
        <time>2013-02-15T17:06:25Z</time>
      </trkpt>
      <trkpt lat="43.14763" lon="-0.24524">
        <ele>291.3</ele>
        <time>2013-02-15T17:06:30Z</time>
      </trkpt>
      <trkpt lat="43.1476" lon="-0.24533">
        <ele>290.7</ele>
        <time>2013-02-15T17:06:35Z</time>
      </trkpt>
      <trkpt lat="43.14757" lon="-0.24545">
        <ele>290.1</ele>
        <time>2013-02-15T17:06:40Z</time>
      </trkpt>
      <trkpt lat="43.14755" lon="-0.24558">
        <ele>290.1</ele>
        <time>2013-02-15T17:06:45Z</time>
      </trkpt>
      <trkpt lat="43.14754" lon="-0.2457">
        <ele>290.3</ele>
        <time>2013-02-15T17:06:50Z</time>
      </trkpt>
      <trkpt lat="43.14752" lon="-0.24587">
        <ele>290</ele>
        <time>2013-02-15T17:06:55Z</time>
      </trkpt>
      <trkpt lat="43.14752" lon="-0.24598">
        <ele>290.4</ele>
        <time>2013-02-15T17:07:00Z</time>
      </trkpt>
      <trkpt lat="43.14752" lon="-0.24601">
        <ele>290.3</ele>
        <time>2013-02-15T17:07:05Z</time>
      </trkpt>
      <trkpt lat="43.14751" lon="-0.24606">
        <ele>290.3</ele>
        <time>2013-02-15T17:07:10Z</time>
      </trkpt>
      <trkpt lat="43.1475" lon="-0.24617">
        <ele>290.4</ele>
        <time>2013-02-15T17:07:15Z</time>
      </trkpt>
      <trkpt lat="43.14747" lon="-0.24629">
        <ele>290.4</ele>
        <time>2013-02-15T17:07:20Z</time>
      </trkpt>
      <trkpt lat="43.14745" lon="-0.24642">
        <ele>290.6</ele>
        <time>2013-02-15T17:07:25Z</time>
      </trkpt>
      <trkpt lat="43.14745" lon="-0.24657">
        <ele>291.7</ele>
        <time>2013-02-15T17:07:30Z</time>
      </trkpt>
      <trkpt lat="43.14744" lon="-0.24671">
        <ele>292.3</ele>
        <time>2013-02-15T17:07:35Z</time>
      </trkpt>
      <trkpt lat="43.14744" lon="-0.2468">
        <ele>292.9</ele>
        <time>2013-02-15T17:07:40Z</time>
      </trkpt>
      <trkpt lat="43.14742" lon="-0.24696">
        <ele>293.4</ele>
        <time>2013-02-15T17:07:45Z</time>
      </trkpt>
      <trkpt lat="43.1474" lon="-0.24712">
        <ele>293.5</ele>
        <time>2013-02-15T17:07:50Z</time>
      </trkpt>
      <trkpt lat="43.14739" lon="-0.24726">
        <ele>293.5</ele>
        <time>2013-02-15T17:07:55Z</time>
      </trkpt>
      <trkpt lat="43.14739" lon="-0.24745">
        <ele>293.8</ele>
        <time>2013-02-15T17:08:00Z</time>
      </trkpt>
      <trkpt lat="43.14738" lon="-0.24759">
        <ele>293.4</ele>
        <time>2013-02-15T17:08:05Z</time>
      </trkpt>
      <trkpt lat="43.14737" lon="-0.2477">
        <ele>293.2</ele>
        <time>2013-02-15T17:08:10Z</time>
      </trkpt>
      <trkpt lat="43.14736" lon="-0.24784">
        <ele>292.7</ele>
        <time>2013-02-15T17:08:15Z</time>
      </trkpt>
      <trkpt lat="43.14733" lon="-0.248">
        <ele>291.5</ele>
        <time>2013-02-15T17:08:20Z</time>
      </trkpt>
      <trkpt lat="43.14733" lon="-0.24815">
        <ele>291.1</ele>
        <time>2013-02-15T17:08:25Z</time>
      </trkpt>
      <trkpt lat="43.14732" lon="-0.2483">
        <ele>290.7</ele>
        <time>2013-02-15T17:08:30Z</time>
      </trkpt>
      <trkpt lat="43.14728" lon="-0.24835">
        <ele>290</ele>
        <time>2013-02-15T17:08:35Z</time>
      </trkpt>
      <trkpt lat="43.14725" lon="-0.24835">
        <ele>289.4</ele>
        <time>2013-02-15T17:08:40Z</time>
      </trkpt>
      <trkpt lat="43.14722" lon="-0.24835">
        <ele>289</ele>
        <time>2013-02-15T17:08:45Z</time>
      </trkpt>
      <trkpt lat="43.14721" lon="-0.24838">
        <ele>289</ele>
        <time>2013-02-15T17:08:50Z</time>
      </trkpt>
      <trkpt lat="43.14722" lon="-0.24851">
        <ele>289</ele>
        <time>2013-02-15T17:08:55Z</time>
      </trkpt>
      <trkpt lat="43.1472" lon="-0.24868">
        <ele>289.5</ele>
        <time>2013-02-15T17:09:00Z</time>
      </trkpt>
      <trkpt lat="43.14716" lon="-0.24888">
        <ele>290.6</ele>
        <time>2013-02-15T17:09:05Z</time>
      </trkpt>
      <trkpt lat="43.14708" lon="-0.24899">
        <ele>289.9</ele>
        <time>2013-02-15T17:09:10Z</time>
      </trkpt>
      <trkpt lat="43.147" lon="-0.24908">
        <ele>288.8</ele>
        <time>2013-02-15T17:09:15Z</time>
      </trkpt>
      <trkpt lat="43.14693" lon="-0.24921">
        <ele>288.4</ele>
        <time>2013-02-15T17:09:20Z</time>
      </trkpt>
      <trkpt lat="43.14688" lon="-0.24936">
        <ele>289.3</ele>
        <time>2013-02-15T17:09:25Z</time>
      </trkpt>
      <trkpt lat="43.14682" lon="-0.24953">
        <ele>289.9</ele>
        <time>2013-02-15T17:09:30Z</time>
      </trkpt>
      <trkpt lat="43.14677" lon="-0.24972">
        <ele>290.3</ele>
        <time>2013-02-15T17:09:35Z</time>
      </trkpt>
      <trkpt lat="43.14675" lon="-0.24988">
        <ele>290.1</ele>
        <time>2013-02-15T17:09:40Z</time>
      </trkpt>
      <trkpt lat="43.14673" lon="-0.25002">
        <ele>289.7</ele>
        <time>2013-02-15T17:09:45Z</time>
      </trkpt>
      <trkpt lat="43.14673" lon="-0.25017">
        <ele>289.8</ele>
        <time>2013-02-15T17:09:50Z</time>
      </trkpt>
      <trkpt lat="43.14671" lon="-0.25036">
        <ele>289.6</ele>
        <time>2013-02-15T17:09:55Z</time>
      </trkpt>
      <trkpt lat="43.14669" lon="-0.25055">
        <ele>289.7</ele>
        <time>2013-02-15T17:10:00Z</time>
      </trkpt>
      <trkpt lat="43.14668" lon="-0.25073">
        <ele>289.3</ele>
        <time>2013-02-15T17:10:05Z</time>
      </trkpt>
      <trkpt lat="43.14666" lon="-0.25095">
        <ele>289.7</ele>
        <time>2013-02-15T17:10:10Z</time>
      </trkpt>
      <trkpt lat="43.14664" lon="-0.25112">
        <ele>290.8</ele>
        <time>2013-02-15T17:10:15Z</time>
      </trkpt>
      <trkpt lat="43.14663" lon="-0.25126">
        <ele>291.3</ele>
        <time>2013-02-15T17:10:20Z</time>
      </trkpt>
      <trkpt lat="43.14657" lon="-0.2514">
        <ele>291.4</ele>
        <time>2013-02-15T17:10:25Z</time>
      </trkpt>
      <trkpt lat="43.14647" lon="-0.2515">
        <ele>291.1</ele>
        <time>2013-02-15T17:10:30Z</time>
      </trkpt>
      <trkpt lat="43.14639" lon="-0.25165">
        <ele>291</ele>
        <time>2013-02-15T17:10:35Z</time>
      </trkpt>
      <trkpt lat="43.14633" lon="-0.25185">
        <ele>291.1</ele>
        <time>2013-02-15T17:10:40Z</time>
      </trkpt>
      <trkpt lat="43.14629" lon="-0.25201">
        <ele>291.1</ele>
        <time>2013-02-15T17:10:45Z</time>
      </trkpt>
      <trkpt lat="43.14626" lon="-0.25214">
        <ele>291.3</ele>
        <time>2013-02-15T17:10:50Z</time>
      </trkpt>
      <trkpt lat="43.14622" lon="-0.25229">
        <ele>291.3</ele>
        <time>2013-02-15T17:10:55Z</time>
      </trkpt>
      <trkpt lat="43.1462" lon="-0.25244">
        <ele>291.5</ele>
        <time>2013-02-15T17:11:00Z</time>
      </trkpt>
      <trkpt lat="43.14617" lon="-0.25259">
        <ele>291.7</ele>
        <time>2013-02-15T17:11:05Z</time>
      </trkpt>
      <trkpt lat="43.14613" lon="-0.25278">
        <ele>292.1</ele>
        <time>2013-02-15T17:11:10Z</time>
      </trkpt>
      <trkpt lat="43.14609" lon="-0.25291">
        <ele>292.4</ele>
        <time>2013-02-15T17:11:15Z</time>
      </trkpt>
      <trkpt lat="43.14605" lon="-0.25305">
        <ele>292.8</ele>
        <time>2013-02-15T17:11:20Z</time>
      </trkpt>
      <trkpt lat="43.14601" lon="-0.25317">
        <ele>293.3</ele>
        <time>2013-02-15T17:11:25Z</time>
      </trkpt>
      <trkpt lat="43.14597" lon="-0.25332">
        <ele>293.9</ele>
        <time>2013-02-15T17:11:30Z</time>
      </trkpt>
      <trkpt lat="43.14603" lon="-0.2534">
        <ele>295.1</ele>
        <time>2013-02-15T17:11:35Z</time>
      </trkpt>
      <trkpt lat="43.14616" lon="-0.25338">
        <ele>296</ele>
        <time>2013-02-15T17:11:40Z</time>
      </trkpt>
      <trkpt lat="43.14627" lon="-0.25336">
        <ele>297.1</ele>
        <time>2013-02-15T17:11:45Z</time>
      </trkpt>
      <trkpt lat="43.14637" lon="-0.25334">
        <ele>297.9</ele>
        <time>2013-02-15T17:11:50Z</time>
      </trkpt>
      <trkpt lat="43.14644" lon="-0.25331">
        <ele>298.6</ele>
        <time>2013-02-15T17:11:55Z</time>
      </trkpt>
      <trkpt lat="43.14653" lon="-0.25329">
        <ele>299.9</ele>
        <time>2013-02-15T17:12:00Z</time>
      </trkpt>
      <trkpt lat="43.14661" lon="-0.25326">
        <ele>300.9</ele>
        <time>2013-02-15T17:12:05Z</time>
      </trkpt>
      <trkpt lat="43.14668" lon="-0.25322">
        <ele>301.6</ele>
        <time>2013-02-15T17:12:10Z</time>
      </trkpt>
      <trkpt lat="43.14677" lon="-0.25317">
        <ele>302.3</ele>
        <time>2013-02-15T17:12:15Z</time>
      </trkpt>
      <trkpt lat="43.14684" lon="-0.25313">
        <ele>303.1</ele>
        <time>2013-02-15T17:12:20Z</time>
      </trkpt>
      <trkpt lat="43.14692" lon="-0.25309">
        <ele>303.9</ele>
        <time>2013-02-15T17:12:25Z</time>
      </trkpt>
      <trkpt lat="43.14696" lon="-0.25303">
        <ele>304.2</ele>
        <time>2013-02-15T17:12:30Z</time>
      </trkpt>
      <trkpt lat="43.14699" lon="-0.25294">
        <ele>304.7</ele>
        <time>2013-02-15T17:12:35Z</time>
      </trkpt>
      <trkpt lat="43.14701" lon="-0.25285">
        <ele>304.9</ele>
        <time>2013-02-15T17:12:40Z</time>
      </trkpt>
      <trkpt lat="43.14702" lon="-0.25274">
        <ele>305.1</ele>
        <time>2013-02-15T17:12:45Z</time>
      </trkpt>
      <trkpt lat="43.14704" lon="-0.25261">
        <ele>305.4</ele>
        <time>2013-02-15T17:12:50Z</time>
      </trkpt>
      <trkpt lat="43.14705" lon="-0.25252">
        <ele>305.6</ele>
        <time>2013-02-15T17:12:55Z</time>
      </trkpt>
      <trkpt lat="43.14707" lon="-0.25244">
        <ele>305.7</ele>
        <time>2013-02-15T17:13:00Z</time>
      </trkpt>
      <trkpt lat="43.14709" lon="-0.25234">
        <ele>305.8</ele>
        <time>2013-02-15T17:13:05Z</time>
      </trkpt>
      <trkpt lat="43.14713" lon="-0.25221">
        <ele>305.9</ele>
        <time>2013-02-15T17:13:10Z</time>
      </trkpt>
      <trkpt lat="43.14718" lon="-0.25204">
        <ele>305.8</ele>
        <time>2013-02-15T17:13:15Z</time>
      </trkpt>
      <trkpt lat="43.14724" lon="-0.25182">
        <ele>305.7</ele>
        <time>2013-02-15T17:13:20Z</time>
      </trkpt>
      <trkpt lat="43.14727" lon="-0.25165">
        <ele>305.7</ele>
        <time>2013-02-15T17:13:25Z</time>
      </trkpt>
      <trkpt lat="43.14731" lon="-0.25154">
        <ele>306.4</ele>
        <time>2013-02-15T17:13:30Z</time>
      </trkpt>
      <trkpt lat="43.14738" lon="-0.25145">
        <ele>307.6</ele>
        <time>2013-02-15T17:13:35Z</time>
      </trkpt>
      <trkpt lat="43.14745" lon="-0.25139">
        <ele>309.1</ele>
        <time>2013-02-15T17:13:40Z</time>
      </trkpt>
      <trkpt lat="43.14753" lon="-0.25135">
        <ele>310.5</ele>
        <time>2013-02-15T17:13:45Z</time>
      </trkpt>
      <trkpt lat="43.14761" lon="-0.25131">
        <ele>312</ele>
        <time>2013-02-15T17:13:50Z</time>
      </trkpt>
      <trkpt lat="43.14767" lon="-0.25126">
        <ele>313.3</ele>
        <time>2013-02-15T17:13:55Z</time>
      </trkpt>
      <trkpt lat="43.14773" lon="-0.25122">
        <ele>314.4</ele>
        <time>2013-02-15T17:14:00Z</time>
      </trkpt>
      <trkpt lat="43.14778" lon="-0.25119">
        <ele>315.4</ele>
        <time>2013-02-15T17:14:05Z</time>
      </trkpt>
      <trkpt lat="43.14786" lon="-0.25116">
        <ele>317.1</ele>
        <time>2013-02-15T17:14:10Z</time>
      </trkpt>
      <trkpt lat="43.14794" lon="-0.25113">
        <ele>318.8</ele>
        <time>2013-02-15T17:14:15Z</time>
      </trkpt>
      <trkpt lat="43.148" lon="-0.25108">
        <ele>320.1</ele>
        <time>2013-02-15T17:14:20Z</time>
      </trkpt>
      <trkpt lat="43.14808" lon="-0.25102">
        <ele>321.6</ele>
        <time>2013-02-15T17:14:25Z</time>
      </trkpt>
      <trkpt lat="43.14815" lon="-0.25097">
        <ele>322.5</ele>
        <time>2013-02-15T17:14:30Z</time>
      </trkpt>
      <trkpt lat="43.14822" lon="-0.25094">
        <ele>323.3</ele>
        <time>2013-02-15T17:14:35Z</time>
      </trkpt>
      <trkpt lat="43.14833" lon="-0.25092">
        <ele>324.3</ele>
        <time>2013-02-15T17:14:40Z</time>
      </trkpt>
      <trkpt lat="43.14846" lon="-0.25094">
        <ele>324.2</ele>
        <time>2013-02-15T17:14:45Z</time>
      </trkpt>
      <trkpt lat="43.14854" lon="-0.25102">
        <ele>324.2</ele>
        <time>2013-02-15T17:14:50Z</time>
      </trkpt>
      <trkpt lat="43.1486" lon="-0.25118">
        <ele>324.3</ele>
        <time>2013-02-15T17:14:55Z</time>
      </trkpt>
      <trkpt lat="43.14866" lon="-0.25133">
        <ele>325</ele>
        <time>2013-02-15T17:15:00Z</time>
      </trkpt>
      <trkpt lat="43.14871" lon="-0.25145">
        <ele>325.5</ele>
        <time>2013-02-15T17:15:05Z</time>
      </trkpt>
      <trkpt lat="43.14878" lon="-0.25159">
        <ele>325.9</ele>
        <time>2013-02-15T17:15:10Z</time>
      </trkpt>
      <trkpt lat="43.14884" lon="-0.25173">
        <ele>326</ele>
        <time>2013-02-15T17:15:15Z</time>
      </trkpt>
      <trkpt lat="43.14889" lon="-0.25188">
        <ele>326</ele>
        <time>2013-02-15T17:15:20Z</time>
      </trkpt>
      <trkpt lat="43.14894" lon="-0.25204">
        <ele>326.1</ele>
        <time>2013-02-15T17:15:25Z</time>
      </trkpt>
      <trkpt lat="43.149" lon="-0.2522">
        <ele>326</ele>
        <time>2013-02-15T17:15:30Z</time>
      </trkpt>
      <trkpt lat="43.14907" lon="-0.25233">
        <ele>325.6</ele>
        <time>2013-02-15T17:15:35Z</time>
      </trkpt>
      <trkpt lat="43.14914" lon="-0.25243">
        <ele>325.2</ele>
        <time>2013-02-15T17:15:40Z</time>
      </trkpt>
      <trkpt lat="43.14923" lon="-0.25255">
        <ele>325</ele>
        <time>2013-02-15T17:15:45Z</time>
      </trkpt>
      <trkpt lat="43.14933" lon="-0.2526">
        <ele>324.8</ele>
        <time>2013-02-15T17:15:50Z</time>
      </trkpt>
      <trkpt lat="43.14944" lon="-0.2525">
        <ele>325</ele>
        <time>2013-02-15T17:15:55Z</time>
      </trkpt>
      <trkpt lat="43.14953" lon="-0.25235">
        <ele>325.9</ele>
        <time>2013-02-15T17:16:00Z</time>
      </trkpt>
      <trkpt lat="43.14961" lon="-0.25223">
        <ele>326.6</ele>
        <time>2013-02-15T17:16:05Z</time>
      </trkpt>
      <trkpt lat="43.14967" lon="-0.25212">
        <ele>326.6</ele>
        <time>2013-02-15T17:16:10Z</time>
      </trkpt>
      <trkpt lat="43.14973" lon="-0.25199">
        <ele>326.3</ele>
        <time>2013-02-15T17:16:15Z</time>
      </trkpt>
      <trkpt lat="43.1498" lon="-0.25187">
        <ele>327.3</ele>
        <time>2013-02-15T17:16:20Z</time>
      </trkpt>
      <trkpt lat="43.14987" lon="-0.25176">
        <ele>328.2</ele>
        <time>2013-02-15T17:16:25Z</time>
      </trkpt>
      <trkpt lat="43.14992" lon="-0.25168">
        <ele>328.7</ele>
        <time>2013-02-15T17:16:30Z</time>
      </trkpt>
      <trkpt lat="43.14998" lon="-0.25158">
        <ele>329.2</ele>
        <time>2013-02-15T17:16:35Z</time>
      </trkpt>
      <trkpt lat="43.15005" lon="-0.2515">
        <ele>329.9</ele>
        <time>2013-02-15T17:16:40Z</time>
      </trkpt>
      <trkpt lat="43.15009" lon="-0.25144">
        <ele>330.5</ele>
        <time>2013-02-15T17:16:45Z</time>
      </trkpt>
      <trkpt lat="43.15014" lon="-0.25137">
        <ele>331.1</ele>
        <time>2013-02-15T17:16:50Z</time>
      </trkpt>
      <trkpt lat="43.15017" lon="-0.25135">
        <ele>331.4</ele>
        <time>2013-02-15T17:16:55Z</time>
      </trkpt>
      <trkpt lat="43.15025" lon="-0.25125">
        <ele>332.8</ele>
        <time>2013-02-15T17:17:00Z</time>
      </trkpt>
      <trkpt lat="43.15032" lon="-0.25117">
        <ele>333.9</ele>
        <time>2013-02-15T17:17:05Z</time>
      </trkpt>
      <trkpt lat="43.1504" lon="-0.25109">
        <ele>335</ele>
        <time>2013-02-15T17:17:10Z</time>
      </trkpt>
      <trkpt lat="43.15045" lon="-0.25102">
        <ele>336.1</ele>
        <time>2013-02-15T17:17:15Z</time>
      </trkpt>
      <trkpt lat="43.1505" lon="-0.2509">
        <ele>337.7</ele>
        <time>2013-02-15T17:17:20Z</time>
      </trkpt>
      <trkpt lat="43.15047" lon="-0.25079">
        <ele>338.6</ele>
        <time>2013-02-15T17:17:25Z</time>
      </trkpt>
      <trkpt lat="43.15042" lon="-0.2507">
        <ele>339</ele>
        <time>2013-02-15T17:17:30Z</time>
      </trkpt>
      <trkpt lat="43.15034" lon="-0.25057">
        <ele>339</ele>
        <time>2013-02-15T17:17:35Z</time>
      </trkpt>
      <trkpt lat="43.15028" lon="-0.25043">
        <ele>338.4</ele>
        <time>2013-02-15T17:17:40Z</time>
      </trkpt>
      <trkpt lat="43.15022" lon="-0.25032">
        <ele>338.3</ele>
        <time>2013-02-15T17:17:45Z</time>
      </trkpt>
      <trkpt lat="43.15016" lon="-0.25018">
        <ele>338</ele>
        <time>2013-02-15T17:17:50Z</time>
      </trkpt>
      <trkpt lat="43.15012" lon="-0.25003">
        <ele>337.6</ele>
        <time>2013-02-15T17:17:55Z</time>
      </trkpt>
      <trkpt lat="43.15012" lon="-0.24987">
        <ele>337.1</ele>
        <time>2013-02-15T17:18:00Z</time>
      </trkpt>
      <trkpt lat="43.15019" lon="-0.24976">
        <ele>337.3</ele>
        <time>2013-02-15T17:18:05Z</time>
      </trkpt>
      <trkpt lat="43.15029" lon="-0.24963">
        <ele>336.9</ele>
        <time>2013-02-15T17:18:10Z</time>
      </trkpt>
      <trkpt lat="43.15038" lon="-0.24952">
        <ele>336.6</ele>
        <time>2013-02-15T17:18:15Z</time>
      </trkpt>
      <trkpt lat="43.15046" lon="-0.24943">
        <ele>336.5</ele>
        <time>2013-02-15T17:18:20Z</time>
      </trkpt>
      <trkpt lat="43.15051" lon="-0.24928">
        <ele>336</ele>
        <time>2013-02-15T17:18:25Z</time>
      </trkpt>
      <trkpt lat="43.15048" lon="-0.24911">
        <ele>335.2</ele>
        <time>2013-02-15T17:18:30Z</time>
      </trkpt>
      <trkpt lat="43.15043" lon="-0.24898">
        <ele>335.6</ele>
        <time>2013-02-15T17:18:35Z</time>
      </trkpt>
      <trkpt lat="43.1504" lon="-0.24881">
        <ele>337.2</ele>
        <time>2013-02-15T17:18:40Z</time>
      </trkpt>
      <trkpt lat="43.15039" lon="-0.24866">
        <ele>338.7</ele>
        <time>2013-02-15T17:18:45Z</time>
      </trkpt>
      <trkpt lat="43.15039" lon="-0.24855">
        <ele>339.7</ele>
        <time>2013-02-15T17:18:50Z</time>
      </trkpt>
      <trkpt lat="43.15038" lon="-0.2484">
        <ele>340.4</ele>
        <time>2013-02-15T17:18:55Z</time>
      </trkpt>
      <trkpt lat="43.15035" lon="-0.24827">
        <ele>340.2</ele>
        <time>2013-02-15T17:19:00Z</time>
      </trkpt>
      <trkpt lat="43.15033" lon="-0.24814">
        <ele>339.9</ele>
        <time>2013-02-15T17:19:05Z</time>
      </trkpt>
      <trkpt lat="43.15037" lon="-0.24796">
        <ele>340.3</ele>
        <time>2013-02-15T17:19:10Z</time>
      </trkpt>
      <trkpt lat="43.15043" lon="-0.24779">
        <ele>340.7</ele>
        <time>2013-02-15T17:19:15Z</time>
      </trkpt>
      <trkpt lat="43.15049" lon="-0.24765">
        <ele>340.3</ele>
        <time>2013-02-15T17:19:20Z</time>
      </trkpt>
      <trkpt lat="43.15056" lon="-0.24753">
        <ele>340.3</ele>
        <time>2013-02-15T17:19:25Z</time>
      </trkpt>
      <trkpt lat="43.15064" lon="-0.24745">
        <ele>340.3</ele>
        <time>2013-02-15T17:19:30Z</time>
      </trkpt>
      <trkpt lat="43.15073" lon="-0.24736">
        <ele>339.9</ele>
        <time>2013-02-15T17:19:35Z</time>
      </trkpt>
      <trkpt lat="43.1508" lon="-0.24725">
        <ele>339.1</ele>
        <time>2013-02-15T17:19:40Z</time>
      </trkpt>
      <trkpt lat="43.15091" lon="-0.2472">
        <ele>338.8</ele>
        <time>2013-02-15T17:19:45Z</time>
      </trkpt>
      <trkpt lat="43.15102" lon="-0.24715">
        <ele>338</ele>
        <time>2013-02-15T17:19:50Z</time>
      </trkpt>
      <trkpt lat="43.15111" lon="-0.24712">
        <ele>337.5</ele>
        <time>2013-02-15T17:19:55Z</time>
      </trkpt>
      <trkpt lat="43.15122" lon="-0.24708">
        <ele>338.1</ele>
        <time>2013-02-15T17:20:00Z</time>
      </trkpt>
      <trkpt lat="43.15132" lon="-0.24708">
        <ele>339.4</ele>
        <time>2013-02-15T17:20:05Z</time>
      </trkpt>
      <trkpt lat="43.15141" lon="-0.2471">
        <ele>341.2</ele>
        <time>2013-02-15T17:20:10Z</time>
      </trkpt>
      <trkpt lat="43.15147" lon="-0.2471">
        <ele>342.5</ele>
        <time>2013-02-15T17:20:15Z</time>
      </trkpt>
      <trkpt lat="43.15155" lon="-0.24709">
        <ele>344.1</ele>
        <time>2013-02-15T17:20:20Z</time>
      </trkpt>
      <trkpt lat="43.1516" lon="-0.24707">
        <ele>344.7</ele>
        <time>2013-02-15T17:20:25Z</time>
      </trkpt>
      <trkpt lat="43.15164" lon="-0.24706">
        <ele>345.5</ele>
        <time>2013-02-15T17:20:30Z</time>
      </trkpt>
      <trkpt lat="43.15169" lon="-0.24702">
        <ele>345.6</ele>
        <time>2013-02-15T17:20:35Z</time>
      </trkpt>
      <trkpt lat="43.15173" lon="-0.24697">
        <ele>345.4</ele>
        <time>2013-02-15T17:20:40Z</time>
      </trkpt>
      <trkpt lat="43.15178" lon="-0.24689">
        <ele>345.3</ele>
        <time>2013-02-15T17:20:45Z</time>
      </trkpt>
      <trkpt lat="43.15185" lon="-0.24688">
        <ele>346.2</ele>
        <time>2013-02-15T17:20:50Z</time>
      </trkpt>
      <trkpt lat="43.15192" lon="-0.24691">
        <ele>347.3</ele>
        <time>2013-02-15T17:20:55Z</time>
      </trkpt>
      <trkpt lat="43.15196" lon="-0.24696">
        <ele>348.9</ele>
        <time>2013-02-15T17:21:00Z</time>
      </trkpt>
      <trkpt lat="43.15198" lon="-0.24706">
        <ele>351.6</ele>
        <time>2013-02-15T17:21:05Z</time>
      </trkpt>
      <trkpt lat="43.15195" lon="-0.24713">
        <ele>352.1</ele>
        <time>2013-02-15T17:21:10Z</time>
      </trkpt>
      <trkpt lat="43.15189" lon="-0.24722">
        <ele>352.9</ele>
        <time>2013-02-15T17:21:15Z</time>
      </trkpt>
      <trkpt lat="43.15185" lon="-0.24728">
        <ele>354.1</ele>
        <time>2013-02-15T17:21:20Z</time>
      </trkpt>
      <trkpt lat="43.15179" lon="-0.24735">
        <ele>355.3</ele>
        <time>2013-02-15T17:21:25Z</time>
      </trkpt>
      <trkpt lat="43.15176" lon="-0.24739">
        <ele>355.9</ele>
        <time>2013-02-15T17:21:30Z</time>
      </trkpt>
      <trkpt lat="43.1517" lon="-0.24743">
        <ele>355.8</ele>
        <time>2013-02-15T17:21:35Z</time>
      </trkpt>
      <trkpt lat="43.15166" lon="-0.24746">
        <ele>355.7</ele>
        <time>2013-02-15T17:21:40Z</time>
      </trkpt>
      <trkpt lat="43.15165" lon="-0.24753">
        <ele>357.3</ele>
        <time>2013-02-15T17:21:45Z</time>
      </trkpt>
      <trkpt lat="43.15162" lon="-0.24761">
        <ele>359</ele>
        <time>2013-02-15T17:21:50Z</time>
      </trkpt>
      <trkpt lat="43.15159" lon="-0.24767">
        <ele>359.7</ele>
        <time>2013-02-15T17:21:55Z</time>
      </trkpt>
      <trkpt lat="43.15156" lon="-0.24772">
        <ele>360.4</ele>
        <time>2013-02-15T17:22:00Z</time>
      </trkpt>
      <trkpt lat="43.15154" lon="-0.24778">
        <ele>361.4</ele>
        <time>2013-02-15T17:22:05Z</time>
      </trkpt>
      <trkpt lat="43.15153" lon="-0.24786">
        <ele>362.3</ele>
        <time>2013-02-15T17:22:10Z</time>
      </trkpt>
      <trkpt lat="43.15157" lon="-0.24792">
        <ele>364.5</ele>
        <time>2013-02-15T17:22:15Z</time>
      </trkpt>
      <trkpt lat="43.15161" lon="-0.24794">
        <ele>366.3</ele>
        <time>2013-02-15T17:22:20Z</time>
      </trkpt>
      <trkpt lat="43.15166" lon="-0.24798">
        <ele>368.5</ele>
        <time>2013-02-15T17:22:25Z</time>
      </trkpt>
      <trkpt lat="43.15169" lon="-0.248">
        <ele>369.8</ele>
        <time>2013-02-15T17:22:30Z</time>
      </trkpt>
      <trkpt lat="43.15172" lon="-0.24802">
        <ele>371</ele>
        <time>2013-02-15T17:22:35Z</time>
      </trkpt>
      <trkpt lat="43.15174" lon="-0.24804">
        <ele>372.5</ele>
        <time>2013-02-15T17:22:40Z</time>
      </trkpt>
      <trkpt lat="43.15175" lon="-0.24806">
        <ele>372.9</ele>
        <time>2013-02-15T17:22:45Z</time>
      </trkpt>
      <trkpt lat="43.15177" lon="-0.24808">
        <ele>373.8</ele>
        <time>2013-02-15T17:22:50Z</time>
      </trkpt>
      <trkpt lat="43.15182" lon="-0.24812">
        <ele>376.2</ele>
        <time>2013-02-15T17:22:55Z</time>
      </trkpt>
      <trkpt lat="43.15185" lon="-0.24812">
        <ele>377.1</ele>
        <time>2013-02-15T17:23:00Z</time>
      </trkpt>
      <trkpt lat="43.15186" lon="-0.24811">
        <ele>377.7</ele>
        <time>2013-02-15T17:23:05Z</time>
      </trkpt>
      <trkpt lat="43.15189" lon="-0.24813">
        <ele>378.9</ele>
        <time>2013-02-15T17:23:10Z</time>
      </trkpt>
      <trkpt lat="43.15191" lon="-0.24816">
        <ele>380.2</ele>
        <time>2013-02-15T17:23:15Z</time>
      </trkpt>
      <trkpt lat="43.15195" lon="-0.24818">
        <ele>381.9</ele>
        <time>2013-02-15T17:23:20Z</time>
      </trkpt>
      <trkpt lat="43.15199" lon="-0.2482">
        <ele>383.7</ele>
        <time>2013-02-15T17:23:25Z</time>
      </trkpt>
      <trkpt lat="43.15204" lon="-0.24819">
        <ele>385.4</ele>
        <time>2013-02-15T17:23:30Z</time>
      </trkpt>
      <trkpt lat="43.15207" lon="-0.24822">
        <ele>386.7</ele>
        <time>2013-02-15T17:23:35Z</time>
      </trkpt>
      <trkpt lat="43.15209" lon="-0.24823">
        <ele>387.6</ele>
        <time>2013-02-15T17:23:40Z</time>
      </trkpt>
      <trkpt lat="43.15212" lon="-0.24825">
        <ele>389</ele>
        <time>2013-02-15T17:23:45Z</time>
      </trkpt>
      <trkpt lat="43.15214" lon="-0.24828">
        <ele>390.3</ele>
        <time>2013-02-15T17:23:50Z</time>
      </trkpt>
      <trkpt lat="43.15213" lon="-0.24829">
        <ele>390.2</ele>
        <time>2013-02-15T17:23:55Z</time>
      </trkpt>
      <trkpt lat="43.15218" lon="-0.24831">
        <ele>391.9</ele>
        <time>2013-02-15T17:24:00Z</time>
      </trkpt>
      <trkpt lat="43.15221" lon="-0.24832">
        <ele>393.3</ele>
        <time>2013-02-15T17:24:05Z</time>
      </trkpt>
      <trkpt lat="43.15225" lon="-0.24832">
        <ele>394.3</ele>
        <time>2013-02-15T17:24:10Z</time>
      </trkpt>
      <trkpt lat="43.15229" lon="-0.24832">
        <ele>395.1</ele>
        <time>2013-02-15T17:24:15Z</time>
      </trkpt>
      <trkpt lat="43.15232" lon="-0.24833">
        <ele>395.7</ele>
        <time>2013-02-15T17:24:20Z</time>
      </trkpt>
      <trkpt lat="43.15233" lon="-0.24835">
        <ele>396</ele>
        <time>2013-02-15T17:24:25Z</time>
      </trkpt>
      <trkpt lat="43.15236" lon="-0.24836">
        <ele>396.4</ele>
        <time>2013-02-15T17:24:30Z</time>
      </trkpt>
      <trkpt lat="43.1524" lon="-0.24834">
        <ele>397.2</ele>
        <time>2013-02-15T17:24:35Z</time>
      </trkpt>
      <trkpt lat="43.15245" lon="-0.24827">
        <ele>397.5</ele>
        <time>2013-02-15T17:24:40Z</time>
      </trkpt>
      <trkpt lat="43.15248" lon="-0.24822">
        <ele>397.9</ele>
        <time>2013-02-15T17:24:45Z</time>
      </trkpt>
      <trkpt lat="43.15253" lon="-0.24821">
        <ele>398.4</ele>
        <time>2013-02-15T17:24:50Z</time>
      </trkpt>
      <trkpt lat="43.15257" lon="-0.24826">
        <ele>398.9</ele>
        <time>2013-02-15T17:24:55Z</time>
      </trkpt>
      <trkpt lat="43.1526" lon="-0.24831">
        <ele>399.6</ele>
        <time>2013-02-15T17:25:00Z</time>
      </trkpt>
      <trkpt lat="43.15265" lon="-0.24837">
        <ele>400</ele>
        <time>2013-02-15T17:25:05Z</time>
      </trkpt>
      <trkpt lat="43.15271" lon="-0.24842">
        <ele>400.4</ele>
        <time>2013-02-15T17:25:10Z</time>
      </trkpt>
      <trkpt lat="43.15274" lon="-0.24847">
        <ele>400.7</ele>
        <time>2013-02-15T17:25:15Z</time>
      </trkpt>
      <trkpt lat="43.15279" lon="-0.24851">
        <ele>400.9</ele>
        <time>2013-02-15T17:25:20Z</time>
      </trkpt>
      <trkpt lat="43.15281" lon="-0.24853">
        <ele>400.8</ele>
        <time>2013-02-15T17:25:25Z</time>
      </trkpt>
      <trkpt lat="43.15281" lon="-0.24854">
        <ele>400.8</ele>
        <time>2013-02-15T17:25:30Z</time>
      </trkpt>
      <trkpt lat="43.15285" lon="-0.24856">
        <ele>400.5</ele>
        <time>2013-02-15T17:25:35Z</time>
      </trkpt>
      <trkpt lat="43.15295" lon="-0.2485">
        <ele>400</ele>
        <time>2013-02-15T17:25:40Z</time>
      </trkpt>
      <trkpt lat="43.15304" lon="-0.24842">
        <ele>399.7</ele>
        <time>2013-02-15T17:25:45Z</time>
      </trkpt>
      <trkpt lat="43.15316" lon="-0.24837">
        <ele>397.3</ele>
        <time>2013-02-15T17:25:50Z</time>
      </trkpt>
      <trkpt lat="43.15326" lon="-0.2485">
        <ele>395.6</ele>
        <time>2013-02-15T17:25:55Z</time>
      </trkpt>
      <trkpt lat="43.15327" lon="-0.24868">
        <ele>396.1</ele>
        <time>2013-02-15T17:26:00Z</time>
      </trkpt>
      <trkpt lat="43.1533" lon="-0.2488">
        <ele>396</ele>
        <time>2013-02-15T17:26:05Z</time>
      </trkpt>
      <trkpt lat="43.15337" lon="-0.24863">
        <ele>394.3</ele>
        <time>2013-02-15T17:26:10Z</time>
      </trkpt>
      <trkpt lat="43.15343" lon="-0.24845">
        <ele>392</ele>
        <time>2013-02-15T17:26:15Z</time>
      </trkpt>
      <trkpt lat="43.15351" lon="-0.2484">
        <ele>390.1</ele>
        <time>2013-02-15T17:26:20Z</time>
      </trkpt>
      <trkpt lat="43.15364" lon="-0.24846">
        <ele>387.9</ele>
        <time>2013-02-15T17:26:25Z</time>
      </trkpt>
      <trkpt lat="43.15377" lon="-0.24857">
        <ele>386</ele>
        <time>2013-02-15T17:26:30Z</time>
      </trkpt>
      <trkpt lat="43.15391" lon="-0.24866">
        <ele>383.6</ele>
        <time>2013-02-15T17:26:35Z</time>
      </trkpt>
      <trkpt lat="43.15403" lon="-0.2486">
        <ele>382.4</ele>
        <time>2013-02-15T17:26:40Z</time>
      </trkpt>
      <trkpt lat="43.15413" lon="-0.2485">
        <ele>381</ele>
        <time>2013-02-15T17:26:45Z</time>
      </trkpt>
      <trkpt lat="43.15422" lon="-0.24843">
        <ele>379.6</ele>
        <time>2013-02-15T17:26:50Z</time>
      </trkpt>
      <trkpt lat="43.15437" lon="-0.24843">
        <ele>377.7</ele>
        <time>2013-02-15T17:26:55Z</time>
      </trkpt>
      <trkpt lat="43.15449" lon="-0.2485">
        <ele>375.5</ele>
        <time>2013-02-15T17:27:00Z</time>
      </trkpt>
      <trkpt lat="43.15461" lon="-0.24849">
        <ele>373.2</ele>
        <time>2013-02-15T17:27:05Z</time>
      </trkpt>
      <trkpt lat="43.15474" lon="-0.24842">
        <ele>370.6</ele>
        <time>2013-02-15T17:27:10Z</time>
      </trkpt>
      <trkpt lat="43.15486" lon="-0.24839">
        <ele>367.7</ele>
        <time>2013-02-15T17:27:15Z</time>
      </trkpt>
      <trkpt lat="43.15497" lon="-0.2484">
        <ele>365</ele>
        <time>2013-02-15T17:27:20Z</time>
      </trkpt>
      <trkpt lat="43.15506" lon="-0.24843">
        <ele>363.3</ele>
        <time>2013-02-15T17:27:25Z</time>
      </trkpt>
      <trkpt lat="43.15513" lon="-0.24846">
        <ele>361.8</ele>
        <time>2013-02-15T17:27:30Z</time>
      </trkpt>
      <trkpt lat="43.15523" lon="-0.24845">
        <ele>360</ele>
        <time>2013-02-15T17:27:35Z</time>
      </trkpt>
      <trkpt lat="43.15537" lon="-0.24844">
        <ele>357.5</ele>
        <time>2013-02-15T17:27:40Z</time>
      </trkpt>
      <trkpt lat="43.15548" lon="-0.24841">
        <ele>355.5</ele>
        <time>2013-02-15T17:27:45Z</time>
      </trkpt>
      <trkpt lat="43.1556" lon="-0.24842">
        <ele>353.9</ele>
        <time>2013-02-15T17:27:50Z</time>
      </trkpt>
      <trkpt lat="43.15568" lon="-0.24847">
        <ele>353.2</ele>
        <time>2013-02-15T17:27:55Z</time>
      </trkpt>
      <trkpt lat="43.15576" lon="-0.24856">
        <ele>352.6</ele>
        <time>2013-02-15T17:28:00Z</time>
      </trkpt>
      <trkpt lat="43.15585" lon="-0.24852">
        <ele>351.5</ele>
        <time>2013-02-15T17:28:05Z</time>
      </trkpt>
      <trkpt lat="43.15593" lon="-0.24841">
        <ele>350.3</ele>
        <time>2013-02-15T17:28:10Z</time>
      </trkpt>
      <trkpt lat="43.15604" lon="-0.24829">
        <ele>348.1</ele>
        <time>2013-02-15T17:28:15Z</time>
      </trkpt>
      <trkpt lat="43.15616" lon="-0.24822">
        <ele>346</ele>
        <time>2013-02-15T17:28:20Z</time>
      </trkpt>
      <trkpt lat="43.15626" lon="-0.2482">
        <ele>344.7</ele>
        <time>2013-02-15T17:28:25Z</time>
      </trkpt>
      <trkpt lat="43.15639" lon="-0.2482">
        <ele>343.6</ele>
        <time>2013-02-15T17:28:30Z</time>
      </trkpt>
      <trkpt lat="43.15651" lon="-0.24823">
        <ele>342.4</ele>
        <time>2013-02-15T17:28:35Z</time>
      </trkpt>
      <trkpt lat="43.15659" lon="-0.24825">
        <ele>341.7</ele>
        <time>2013-02-15T17:28:40Z</time>
      </trkpt>
      <trkpt lat="43.1566" lon="-0.24825">
        <ele>341.6</ele>
        <time>2013-02-15T17:28:45Z</time>
      </trkpt>
      <trkpt lat="43.15675" lon="-0.24831">
        <ele>339.9</ele>
        <time>2013-02-15T17:28:50Z</time>
      </trkpt>
      <trkpt lat="43.15687" lon="-0.24839">
        <ele>338.2</ele>
        <time>2013-02-15T17:28:55Z</time>
      </trkpt>
      <trkpt lat="43.15696" lon="-0.24845">
        <ele>336.9</ele>
        <time>2013-02-15T17:29:00Z</time>
      </trkpt>
      <trkpt lat="43.15709" lon="-0.24855">
        <ele>335</ele>
        <time>2013-02-15T17:29:05Z</time>
      </trkpt>
      <trkpt lat="43.15721" lon="-0.24865">
        <ele>333.5</ele>
        <time>2013-02-15T17:29:10Z</time>
      </trkpt>
      <trkpt lat="43.15733" lon="-0.24871">
        <ele>332.9</ele>
        <time>2013-02-15T17:29:15Z</time>
      </trkpt>
      <trkpt lat="43.15747" lon="-0.24878">
        <ele>332.4</ele>
        <time>2013-02-15T17:29:20Z</time>
      </trkpt>
      <trkpt lat="43.15758" lon="-0.24885">
        <ele>332.2</ele>
        <time>2013-02-15T17:29:25Z</time>
      </trkpt>
      <trkpt lat="43.15767" lon="-0.24893">
        <ele>331.9</ele>
        <time>2013-02-15T17:29:30Z</time>
      </trkpt>
      <trkpt lat="43.15777" lon="-0.24903">
        <ele>331.6</ele>
        <time>2013-02-15T17:29:35Z</time>
      </trkpt>
      <trkpt lat="43.15786" lon="-0.24914">
        <ele>330.8</ele>
        <time>2013-02-15T17:29:40Z</time>
      </trkpt>
      <trkpt lat="43.15792" lon="-0.24929">
        <ele>329.7</ele>
        <time>2013-02-15T17:29:45Z</time>
      </trkpt>
      <trkpt lat="43.15798" lon="-0.24949">
        <ele>328.9</ele>
        <time>2013-02-15T17:29:50Z</time>
      </trkpt>
      <trkpt lat="43.15802" lon="-0.24965">
        <ele>328.9</ele>
        <time>2013-02-15T17:29:55Z</time>
      </trkpt>
      <trkpt lat="43.15806" lon="-0.2498">
        <ele>328.6</ele>
        <time>2013-02-15T17:30:00Z</time>
      </trkpt>
      <trkpt lat="43.15809" lon="-0.24993">
        <ele>327.6</ele>
        <time>2013-02-15T17:30:05Z</time>
      </trkpt>
      <trkpt lat="43.15812" lon="-0.2501">
        <ele>326.6</ele>
        <time>2013-02-15T17:30:10Z</time>
      </trkpt>
      <trkpt lat="43.15814" lon="-0.25027">
        <ele>326.1</ele>
        <time>2013-02-15T17:30:15Z</time>
      </trkpt>
      <trkpt lat="43.15812" lon="-0.25045">
        <ele>325.8</ele>
        <time>2013-02-15T17:30:20Z</time>
      </trkpt>
      <trkpt lat="43.15813" lon="-0.25065">
        <ele>325.2</ele>
        <time>2013-02-15T17:30:25Z</time>
      </trkpt>
      <trkpt lat="43.1582" lon="-0.25062">
        <ele>324.8</ele>
        <time>2013-02-15T17:30:30Z</time>
      </trkpt>
      <trkpt lat="43.15824" lon="-0.25058">
        <ele>324.6</ele>
        <time>2013-02-15T17:30:35Z</time>
      </trkpt>
      <trkpt lat="43.15825" lon="-0.25057">
        <ele>324.6</ele>
        <time>2013-02-15T17:30:40Z</time>
      </trkpt>
      <trkpt lat="43.15829" lon="-0.25067">
        <ele>324.3</ele>
        <time>2013-02-15T17:30:45Z</time>
      </trkpt>
      <trkpt lat="43.15837" lon="-0.25079">
        <ele>323.7</ele>
        <time>2013-02-15T17:30:50Z</time>
      </trkpt>
      <trkpt lat="43.15852" lon="-0.25084">
        <ele>322.7</ele>
        <time>2013-02-15T17:30:55Z</time>
      </trkpt>
      <trkpt lat="43.15864" lon="-0.25087">
        <ele>321.8</ele>
        <time>2013-02-15T17:31:00Z</time>
      </trkpt>
      <trkpt lat="43.15875" lon="-0.25089">
        <ele>320.8</ele>
        <time>2013-02-15T17:31:05Z</time>
      </trkpt>
      <trkpt lat="43.15887" lon="-0.25093">
        <ele>319.9</ele>
        <time>2013-02-15T17:31:10Z</time>
      </trkpt>
      <trkpt lat="43.15899" lon="-0.25097">
        <ele>319.4</ele>
        <time>2013-02-15T17:31:15Z</time>
      </trkpt>
      <trkpt lat="43.15912" lon="-0.25097">
        <ele>318.7</ele>
        <time>2013-02-15T17:31:20Z</time>
      </trkpt>
      <trkpt lat="43.15924" lon="-0.25097">
        <ele>318.7</ele>
        <time>2013-02-15T17:31:25Z</time>
      </trkpt>
      <trkpt lat="43.15937" lon="-0.25094">
        <ele>319</ele>
        <time>2013-02-15T17:31:30Z</time>
      </trkpt>
      <trkpt lat="43.15948" lon="-0.25089">
        <ele>319.3</ele>
        <time>2013-02-15T17:31:35Z</time>
      </trkpt>
      <trkpt lat="43.15956" lon="-0.25083">
        <ele>319.4</ele>
        <time>2013-02-15T17:31:40Z</time>
      </trkpt>
      <trkpt lat="43.15966" lon="-0.25081">
        <ele>319.7</ele>
        <time>2013-02-15T17:31:45Z</time>
      </trkpt>
      <trkpt lat="43.15977" lon="-0.2508">
        <ele>319.9</ele>
        <time>2013-02-15T17:31:50Z</time>
      </trkpt>
      <trkpt lat="43.15982" lon="-0.25074">
        <ele>319.8</ele>
        <time>2013-02-15T17:31:55Z</time>
      </trkpt>
      <trkpt lat="43.15986" lon="-0.25067">
        <ele>319.7</ele>
        <time>2013-02-15T17:32:00Z</time>
      </trkpt>
      <trkpt lat="43.15996" lon="-0.25067">
        <ele>319.9</ele>
        <time>2013-02-15T17:32:05Z</time>
      </trkpt>
      <trkpt lat="43.16003" lon="-0.25065">
        <ele>319.9</ele>
        <time>2013-02-15T17:32:10Z</time>
      </trkpt>
      <trkpt lat="43.16006" lon="-0.2506">
        <ele>319.8</ele>
        <time>2013-02-15T17:32:15Z</time>
      </trkpt>
      <trkpt lat="43.16012" lon="-0.25056">
        <ele>319.6</ele>
        <time>2013-02-15T17:32:20Z</time>
      </trkpt>
      <trkpt lat="43.16019" lon="-0.25052">
        <ele>319.4</ele>
        <time>2013-02-15T17:32:25Z</time>
      </trkpt>
      <trkpt lat="43.16023" lon="-0.25045">
        <ele>319.4</ele>
        <time>2013-02-15T17:32:30Z</time>
      </trkpt>
      <trkpt lat="43.16033" lon="-0.25035">
        <ele>319.6</ele>
        <time>2013-02-15T17:32:35Z</time>
      </trkpt>
      <trkpt lat="43.16045" lon="-0.25026">
        <ele>319.4</ele>
        <time>2013-02-15T17:32:40Z</time>
      </trkpt>
      <trkpt lat="43.16051" lon="-0.25019">
        <ele>319.2</ele>
        <time>2013-02-15T17:32:45Z</time>
      </trkpt>
      <trkpt lat="43.16056" lon="-0.25006">
        <ele>319</ele>
        <time>2013-02-15T17:32:50Z</time>
      </trkpt>
      <trkpt lat="43.16059" lon="-0.24995">
        <ele>319</ele>
        <time>2013-02-15T17:32:55Z</time>
      </trkpt>
      <trkpt lat="43.16065" lon="-0.24994">
        <ele>319.1</ele>
        <time>2013-02-15T17:33:00Z</time>
      </trkpt>
      <trkpt lat="43.16071" lon="-0.24995">
        <ele>319.4</ele>
        <time>2013-02-15T17:33:05Z</time>
      </trkpt>
      <trkpt lat="43.16077" lon="-0.24993">
        <ele>319.5</ele>
        <time>2013-02-15T17:33:10Z</time>
      </trkpt>
      <trkpt lat="43.16085" lon="-0.24995">
        <ele>319.9</ele>
        <time>2013-02-15T17:33:15Z</time>
      </trkpt>
      <trkpt lat="43.16096" lon="-0.24998">
        <ele>320.4</ele>
        <time>2013-02-15T17:33:20Z</time>
      </trkpt>
      <trkpt lat="43.16107" lon="-0.25003">
        <ele>320.8</ele>
        <time>2013-02-15T17:33:25Z</time>
      </trkpt>
      <trkpt lat="43.16116" lon="-0.25008">
        <ele>321.4</ele>
        <time>2013-02-15T17:33:30Z</time>
      </trkpt>
      <trkpt lat="43.16128" lon="-0.25015">
        <ele>322.2</ele>
        <time>2013-02-15T17:33:35Z</time>
      </trkpt>
      <trkpt lat="43.16138" lon="-0.25021">
        <ele>322.9</ele>
        <time>2013-02-15T17:33:40Z</time>
      </trkpt>
      <trkpt lat="43.16145" lon="-0.25025">
        <ele>323.4</ele>
        <time>2013-02-15T17:33:45Z</time>
      </trkpt>
      <trkpt lat="43.16155" lon="-0.2503">
        <ele>324.2</ele>
        <time>2013-02-15T17:33:50Z</time>
      </trkpt>
      <trkpt lat="43.16164" lon="-0.25035">
        <ele>325.1</ele>
        <time>2013-02-15T17:33:55Z</time>
      </trkpt>
      <trkpt lat="43.16173" lon="-0.2504">
        <ele>326</ele>
        <time>2013-02-15T17:34:00Z</time>
      </trkpt>
      <trkpt lat="43.16182" lon="-0.25045">
        <ele>327</ele>
        <time>2013-02-15T17:34:05Z</time>
      </trkpt>
      <trkpt lat="43.16195" lon="-0.25046">
        <ele>328</ele>
        <time>2013-02-15T17:34:10Z</time>
      </trkpt>
      <trkpt lat="43.16201" lon="-0.25043">
        <ele>328</ele>
        <time>2013-02-15T17:34:15Z</time>
      </trkpt>
      <trkpt lat="43.16203" lon="-0.25038">
        <ele>328</ele>
        <time>2013-02-15T17:34:20Z</time>
      </trkpt>
      <trkpt lat="43.16204" lon="-0.25035">
        <ele>328</ele>
        <time>2013-02-15T17:34:25Z</time>
      </trkpt>
      <trkpt lat="43.16207" lon="-0.2502">
        <ele>328</ele>
        <time>2013-02-15T17:34:30Z</time>
      </trkpt>
      <trkpt lat="43.16213" lon="-0.25005">
        <ele>328.3</ele>
        <time>2013-02-15T17:34:35Z</time>
      </trkpt>
      <trkpt lat="43.16215" lon="-0.24993">
        <ele>328.4</ele>
        <time>2013-02-15T17:34:40Z</time>
      </trkpt>
      <trkpt lat="43.16223" lon="-0.2498">
        <ele>329</ele>
        <time>2013-02-15T17:34:45Z</time>
      </trkpt>
      <trkpt lat="43.1623" lon="-0.24977">
        <ele>329</ele>
        <time>2013-02-15T17:34:50Z</time>
      </trkpt>
      <trkpt lat="43.1624" lon="-0.24972">
        <ele>329</ele>
        <time>2013-02-15T17:34:55Z</time>
      </trkpt>
      <trkpt lat="43.16249" lon="-0.24968">
        <ele>329.1</ele>
        <time>2013-02-15T17:35:00Z</time>
      </trkpt>
      <trkpt lat="43.16259" lon="-0.24965">
        <ele>329.8</ele>
        <time>2013-02-15T17:35:05Z</time>
      </trkpt>
      <trkpt lat="43.16269" lon="-0.24959">
        <ele>330.5</ele>
        <time>2013-02-15T17:35:10Z</time>
      </trkpt>
      <trkpt lat="43.16275" lon="-0.24945">
        <ele>330.9</ele>
        <time>2013-02-15T17:35:15Z</time>
      </trkpt>
      <trkpt lat="43.16282" lon="-0.24938">
        <ele>331</ele>
        <time>2013-02-15T17:35:20Z</time>
      </trkpt>
      <trkpt lat="43.16291" lon="-0.24934">
        <ele>331</ele>
        <time>2013-02-15T17:35:25Z</time>
      </trkpt>
      <trkpt lat="43.16302" lon="-0.24926">
        <ele>331</ele>
        <time>2013-02-15T17:35:30Z</time>
      </trkpt>
      <trkpt lat="43.16312" lon="-0.24921">
        <ele>330.8</ele>
        <time>2013-02-15T17:35:35Z</time>
      </trkpt>
      <trkpt lat="43.16323" lon="-0.24917">
        <ele>330.4</ele>
        <time>2013-02-15T17:35:40Z</time>
      </trkpt>
      <trkpt lat="43.16335" lon="-0.24911">
        <ele>329.7</ele>
        <time>2013-02-15T17:35:45Z</time>
      </trkpt>
      <trkpt lat="43.16345" lon="-0.24908">
        <ele>329</ele>
        <time>2013-02-15T17:35:50Z</time>
      </trkpt>
      <trkpt lat="43.16354" lon="-0.24907">
        <ele>328.4</ele>
        <time>2013-02-15T17:35:55Z</time>
      </trkpt>
      <trkpt lat="43.16367" lon="-0.24904">
        <ele>327.5</ele>
        <time>2013-02-15T17:36:00Z</time>
      </trkpt>
      <trkpt lat="43.16376" lon="-0.24899">
        <ele>326.6</ele>
        <time>2013-02-15T17:36:05Z</time>
      </trkpt>
      <trkpt lat="43.16386" lon="-0.24893">
        <ele>325.5</ele>
        <time>2013-02-15T17:36:10Z</time>
      </trkpt>
      <trkpt lat="43.1639" lon="-0.24881">
        <ele>324.6</ele>
        <time>2013-02-15T17:36:15Z</time>
      </trkpt>
      <trkpt lat="43.16387" lon="-0.24865">
        <ele>324.3</ele>
        <time>2013-02-15T17:36:20Z</time>
      </trkpt>
      <trkpt lat="43.16383" lon="-0.24855">
        <ele>324</ele>
        <time>2013-02-15T17:36:25Z</time>
      </trkpt>
      <trkpt lat="43.16378" lon="-0.24841">
        <ele>323.3</ele>
        <time>2013-02-15T17:36:30Z</time>
      </trkpt>
      <trkpt lat="43.16373" lon="-0.24827">
        <ele>322.6</ele>
        <time>2013-02-15T17:36:35Z</time>
      </trkpt>
      <trkpt lat="43.16369" lon="-0.24811">
        <ele>321.7</ele>
        <time>2013-02-15T17:36:40Z</time>
      </trkpt>
      <trkpt lat="43.16363" lon="-0.24797">
        <ele>320.8</ele>
        <time>2013-02-15T17:36:45Z</time>
      </trkpt>
      <trkpt lat="43.1636" lon="-0.24778">
        <ele>319</ele>
        <time>2013-02-15T17:36:50Z</time>
      </trkpt>
      <trkpt lat="43.16357" lon="-0.2476">
        <ele>317.1</ele>
        <time>2013-02-15T17:36:55Z</time>
      </trkpt>
      <trkpt lat="43.1636" lon="-0.24748">
        <ele>315.8</ele>
        <time>2013-02-15T17:37:00Z</time>
      </trkpt>
      <trkpt lat="43.16365" lon="-0.24733">
        <ele>313.8</ele>
        <time>2013-02-15T17:37:05Z</time>
      </trkpt>
      <trkpt lat="43.16369" lon="-0.24721">
        <ele>312.2</ele>
        <time>2013-02-15T17:37:10Z</time>
      </trkpt>
      <trkpt lat="43.16368" lon="-0.24711">
        <ele>311.1</ele>
        <time>2013-02-15T17:37:15Z</time>
      </trkpt>
      <trkpt lat="43.16367" lon="-0.24706">
        <ele>310.6</ele>
        <time>2013-02-15T17:37:20Z</time>
      </trkpt>
      <trkpt lat="43.16367" lon="-0.24701">
        <ele>310</ele>
        <time>2013-02-15T17:37:25Z</time>
      </trkpt>
      <trkpt lat="43.16366" lon="-0.24696">
        <ele>309.4</ele>
        <time>2013-02-15T17:37:30Z</time>
      </trkpt>
      <trkpt lat="43.16369" lon="-0.24701">
        <ele>309.6</ele>
        <time>2013-02-15T17:37:35Z</time>
      </trkpt>
      <trkpt lat="43.16375" lon="-0.24715">
        <ele>311.1</ele>
        <time>2013-02-15T17:37:40Z</time>
      </trkpt>
      <trkpt lat="43.16381" lon="-0.24732">
        <ele>312.6</ele>
        <time>2013-02-15T17:37:45Z</time>
      </trkpt>
      <trkpt lat="43.16389" lon="-0.24747">
        <ele>313.7</ele>
        <time>2013-02-15T17:37:50Z</time>
      </trkpt>
      <trkpt lat="43.16396" lon="-0.2476">
        <ele>314.3</ele>
        <time>2013-02-15T17:37:55Z</time>
      </trkpt>
      <trkpt lat="43.16401" lon="-0.24771">
        <ele>314.7</ele>
        <time>2013-02-15T17:38:00Z</time>
      </trkpt>
      <trkpt lat="43.16407" lon="-0.24775">
        <ele>315.2</ele>
        <time>2013-02-15T17:38:05Z</time>
      </trkpt>
      <trkpt lat="43.16419" lon="-0.24769">
        <ele>315.6</ele>
        <time>2013-02-15T17:38:10Z</time>
      </trkpt>
      <trkpt lat="43.16428" lon="-0.24764">
        <ele>315.1</ele>
        <time>2013-02-15T17:38:15Z</time>
      </trkpt>
      <trkpt lat="43.1644" lon="-0.24762">
        <ele>314.7</ele>
        <time>2013-02-15T17:38:20Z</time>
      </trkpt>
      <trkpt lat="43.16452" lon="-0.2476">
        <ele>314.7</ele>
        <time>2013-02-15T17:38:25Z</time>
      </trkpt>
      <trkpt lat="43.16461" lon="-0.24757">
        <ele>314.9</ele>
        <time>2013-02-15T17:38:30Z</time>
      </trkpt>
      <trkpt lat="43.16469" lon="-0.24754">
        <ele>315</ele>
        <time>2013-02-15T17:38:35Z</time>
      </trkpt>
      <trkpt lat="43.1648" lon="-0.24749">
        <ele>314.2</ele>
        <time>2013-02-15T17:38:40Z</time>
      </trkpt>
      <trkpt lat="43.16489" lon="-0.24747">
        <ele>313</ele>
        <time>2013-02-15T17:38:45Z</time>
      </trkpt>
      <trkpt lat="43.16496" lon="-0.24751">
        <ele>312.6</ele>
        <time>2013-02-15T17:38:50Z</time>
      </trkpt>
      <trkpt lat="43.16501" lon="-0.24758">
        <ele>312.7</ele>
        <time>2013-02-15T17:38:55Z</time>
      </trkpt>
      <trkpt lat="43.16505" lon="-0.24766">
        <ele>312.8</ele>
        <time>2013-02-15T17:39:00Z</time>
      </trkpt>
      <trkpt lat="43.16507" lon="-0.24772">
        <ele>313.3</ele>
        <time>2013-02-15T17:39:05Z</time>
      </trkpt>
      <trkpt lat="43.1651" lon="-0.24783">
        <ele>314</ele>
        <time>2013-02-15T17:39:10Z</time>
      </trkpt>
      <trkpt lat="43.16513" lon="-0.24795">
        <ele>314.6</ele>
        <time>2013-02-15T17:39:15Z</time>
      </trkpt>
      <trkpt lat="43.16516" lon="-0.24806">
        <ele>315.4</ele>
        <time>2013-02-15T17:39:20Z</time>
      </trkpt>
      <trkpt lat="43.16523" lon="-0.24821">
        <ele>315.2</ele>
        <time>2013-02-15T17:39:25Z</time>
      </trkpt>
      <trkpt lat="43.16532" lon="-0.24838">
        <ele>314.4</ele>
        <time>2013-02-15T17:39:30Z</time>
      </trkpt>
      <trkpt lat="43.16538" lon="-0.24851">
        <ele>313.8</ele>
        <time>2013-02-15T17:39:35Z</time>
      </trkpt>
      <trkpt lat="43.16542" lon="-0.24863">
        <ele>313.4</ele>
        <time>2013-02-15T17:39:40Z</time>
      </trkpt>
      <trkpt lat="43.16546" lon="-0.24874">
        <ele>313.1</ele>
        <time>2013-02-15T17:39:45Z</time>
      </trkpt>
      <trkpt lat="43.16548" lon="-0.24883">
        <ele>312.8</ele>
        <time>2013-02-15T17:39:50Z</time>
      </trkpt>
      <trkpt lat="43.1655" lon="-0.24891">
        <ele>312.5</ele>
        <time>2013-02-15T17:39:55Z</time>
      </trkpt>
      <trkpt lat="43.16552" lon="-0.24904">
        <ele>311.9</ele>
        <time>2013-02-15T17:40:00Z</time>
      </trkpt>
      <trkpt lat="43.16552" lon="-0.24917">
        <ele>311.5</ele>
        <time>2013-02-15T17:40:05Z</time>
      </trkpt>
      <trkpt lat="43.16553" lon="-0.2493">
        <ele>311</ele>
        <time>2013-02-15T17:40:10Z</time>
      </trkpt>
      <trkpt lat="43.16554" lon="-0.24949">
        <ele>310.4</ele>
        <time>2013-02-15T17:40:15Z</time>
      </trkpt>
      <trkpt lat="43.16559" lon="-0.2497">
        <ele>309.6</ele>
        <time>2013-02-15T17:40:20Z</time>
      </trkpt>
      <trkpt lat="43.1656" lon="-0.24993">
        <ele>309.3</ele>
        <time>2013-02-15T17:40:25Z</time>
      </trkpt>
      <trkpt lat="43.16561" lon="-0.2502">
        <ele>308.4</ele>
        <time>2013-02-15T17:40:30Z</time>
      </trkpt>
      <trkpt lat="43.16561" lon="-0.25042">
        <ele>307.5</ele>
        <time>2013-02-15T17:40:35Z</time>
      </trkpt>
      <trkpt lat="43.16563" lon="-0.25063">
        <ele>306.5</ele>
        <time>2013-02-15T17:40:40Z</time>
      </trkpt>
      <trkpt lat="43.16564" lon="-0.2508">
        <ele>305.9</ele>
        <time>2013-02-15T17:40:45Z</time>
      </trkpt>
      <trkpt lat="43.16566" lon="-0.25101">
        <ele>305.1</ele>
        <time>2013-02-15T17:40:50Z</time>
      </trkpt>
      <trkpt lat="43.16565" lon="-0.25122">
        <ele>304.7</ele>
        <time>2013-02-15T17:40:55Z</time>
      </trkpt>
      <trkpt lat="43.16567" lon="-0.25145">
        <ele>304.2</ele>
        <time>2013-02-15T17:41:00Z</time>
      </trkpt>
      <trkpt lat="43.16568" lon="-0.25168">
        <ele>304.1</ele>
        <time>2013-02-15T17:41:05Z</time>
      </trkpt>
      <trkpt lat="43.16572" lon="-0.25188">
        <ele>304</ele>
        <time>2013-02-15T17:41:10Z</time>
      </trkpt>
      <trkpt lat="43.16577" lon="-0.252">
        <ele>304.2</ele>
        <time>2013-02-15T17:41:15Z</time>
      </trkpt>
      <trkpt lat="43.16582" lon="-0.25215">
        <ele>304.7</ele>
        <time>2013-02-15T17:41:20Z</time>
      </trkpt>
      <trkpt lat="43.16589" lon="-0.25228">
        <ele>305.3</ele>
        <time>2013-02-15T17:41:25Z</time>
      </trkpt>
      <trkpt lat="43.16598" lon="-0.25239">
        <ele>305.8</ele>
        <time>2013-02-15T17:41:30Z</time>
      </trkpt>
      <trkpt lat="43.16608" lon="-0.25255">
        <ele>306.2</ele>
        <time>2013-02-15T17:41:35Z</time>
      </trkpt>
      <trkpt lat="43.16616" lon="-0.2527">
        <ele>305.8</ele>
        <time>2013-02-15T17:41:40Z</time>
      </trkpt>
      <trkpt lat="43.16622" lon="-0.2528">
        <ele>305.7</ele>
        <time>2013-02-15T17:41:45Z</time>
      </trkpt>
      <trkpt lat="43.16626" lon="-0.25287">
        <ele>305.6</ele>
        <time>2013-02-15T17:41:50Z</time>
      </trkpt>
      <trkpt lat="43.16629" lon="-0.2529">
        <ele>305.5</ele>
        <time>2013-02-15T17:41:55Z</time>
      </trkpt>
      <trkpt lat="43.1663" lon="-0.25292">
        <ele>305.5</ele>
        <time>2013-02-15T17:42:00Z</time>
      </trkpt>
      <trkpt lat="43.16631" lon="-0.25294">
        <ele>305.5</ele>
        <time>2013-02-15T17:42:05Z</time>
      </trkpt>
      <trkpt lat="43.1664" lon="-0.25305">
        <ele>304.9</ele>
        <time>2013-02-15T17:42:10Z</time>
      </trkpt>
      <trkpt lat="43.1665" lon="-0.25314">
        <ele>304.5</ele>
        <time>2013-02-15T17:42:15Z</time>
      </trkpt>
      <trkpt lat="43.16658" lon="-0.25323">
        <ele>304.3</ele>
        <time>2013-02-15T17:42:20Z</time>
      </trkpt>
      <trkpt lat="43.16668" lon="-0.25334">
        <ele>304</ele>
        <time>2013-02-15T17:42:25Z</time>
      </trkpt>
      <trkpt lat="43.16679" lon="-0.25346">
        <ele>303.8</ele>
        <time>2013-02-15T17:42:30Z</time>
      </trkpt>
      <trkpt lat="43.16688" lon="-0.25356">
        <ele>303.4</ele>
        <time>2013-02-15T17:42:35Z</time>
      </trkpt>
      <trkpt lat="43.16701" lon="-0.25369">
        <ele>303</ele>
        <time>2013-02-15T17:42:40Z</time>
      </trkpt>
      <trkpt lat="43.16711" lon="-0.25378">
        <ele>303</ele>
        <time>2013-02-15T17:42:45Z</time>
      </trkpt>
      <trkpt lat="43.16719" lon="-0.25387">
        <ele>303</ele>
        <time>2013-02-15T17:42:50Z</time>
      </trkpt>
      <trkpt lat="43.1673" lon="-0.25398">
        <ele>302.9</ele>
        <time>2013-02-15T17:42:55Z</time>
      </trkpt>
      <trkpt lat="43.1674" lon="-0.25409">
        <ele>302.6</ele>
        <time>2013-02-15T17:43:00Z</time>
      </trkpt>
      <trkpt lat="43.16749" lon="-0.25418">
        <ele>302.1</ele>
        <time>2013-02-15T17:43:05Z</time>
      </trkpt>
      <trkpt lat="43.16758" lon="-0.25427">
        <ele>302.1</ele>
        <time>2013-02-15T17:43:10Z</time>
      </trkpt>
      <trkpt lat="43.1677" lon="-0.25438">
        <ele>302</ele>
        <time>2013-02-15T17:43:15Z</time>
      </trkpt>
      <trkpt lat="43.16781" lon="-0.25448">
        <ele>301.8</ele>
        <time>2013-02-15T17:43:20Z</time>
      </trkpt>
      <trkpt lat="43.16788" lon="-0.25454">
        <ele>301.4</ele>
        <time>2013-02-15T17:43:25Z</time>
      </trkpt>
      <trkpt lat="43.168" lon="-0.25463">
        <ele>300.9</ele>
        <time>2013-02-15T17:43:30Z</time>
      </trkpt>
      <trkpt lat="43.16811" lon="-0.25472">
        <ele>300.8</ele>
        <time>2013-02-15T17:43:35Z</time>
      </trkpt>
      <trkpt lat="43.16824" lon="-0.25483">
        <ele>300.1</ele>
        <time>2013-02-15T17:43:40Z</time>
      </trkpt>
      <trkpt lat="43.16825" lon="-0.25495">
        <ele>299.7</ele>
        <time>2013-02-15T17:43:45Z</time>
      </trkpt>
      <trkpt lat="43.16827" lon="-0.25508">
        <ele>299.5</ele>
        <time>2013-02-15T17:43:50Z</time>
      </trkpt>
      <trkpt lat="43.16834" lon="-0.25518">
        <ele>299</ele>
        <time>2013-02-15T17:43:55Z</time>
      </trkpt>
      <trkpt lat="43.16841" lon="-0.25534">
        <ele>298.7</ele>
        <time>2013-02-15T17:44:00Z</time>
      </trkpt>
      <trkpt lat="43.16848" lon="-0.25548">
        <ele>298.1</ele>
        <time>2013-02-15T17:44:05Z</time>
      </trkpt>
      <trkpt lat="43.16854" lon="-0.25563">
        <ele>297.2</ele>
        <time>2013-02-15T17:44:10Z</time>
      </trkpt>
      <trkpt lat="43.16859" lon="-0.25583">
        <ele>296.2</ele>
        <time>2013-02-15T17:44:15Z</time>
      </trkpt>
      <trkpt lat="43.16861" lon="-0.256">
        <ele>295.4</ele>
        <time>2013-02-15T17:44:20Z</time>
      </trkpt>
      <trkpt lat="43.16861" lon="-0.25613">
        <ele>294.8</ele>
        <time>2013-02-15T17:44:25Z</time>
      </trkpt>
      <trkpt lat="43.16862" lon="-0.2563">
        <ele>292.9</ele>
        <time>2013-02-15T17:44:30Z</time>
      </trkpt>
      <trkpt lat="43.16863" lon="-0.25646">
        <ele>291.3</ele>
        <time>2013-02-15T17:44:35Z</time>
      </trkpt>
      <trkpt lat="43.16869" lon="-0.25659">
        <ele>289.6</ele>
        <time>2013-02-15T17:44:40Z</time>
      </trkpt>
      <trkpt lat="43.16877" lon="-0.25669">
        <ele>287.4</ele>
        <time>2013-02-15T17:44:45Z</time>
      </trkpt>
      <trkpt lat="43.16885" lon="-0.25678">
        <ele>284.9</ele>
        <time>2013-02-15T17:44:50Z</time>
      </trkpt>
      <trkpt lat="43.16896" lon="-0.25678">
        <ele>283.4</ele>
        <time>2013-02-15T17:44:55Z</time>
      </trkpt>
      <trkpt lat="43.16907" lon="-0.25677">
        <ele>282.3</ele>
        <time>2013-02-15T17:45:00Z</time>
      </trkpt>
      <trkpt lat="43.16917" lon="-0.25676">
        <ele>281.4</ele>
        <time>2013-02-15T17:45:05Z</time>
      </trkpt>
      <trkpt lat="43.16928" lon="-0.25675">
        <ele>279.6</ele>
        <time>2013-02-15T17:45:10Z</time>
      </trkpt>
      <trkpt lat="43.16939" lon="-0.25675">
        <ele>277.8</ele>
        <time>2013-02-15T17:45:15Z</time>
      </trkpt>
      <trkpt lat="43.16953" lon="-0.25671">
        <ele>275.9</ele>
        <time>2013-02-15T17:45:20Z</time>
      </trkpt>
      <trkpt lat="43.16964" lon="-0.25667">
        <ele>274.6</ele>
        <time>2013-02-15T17:45:25Z</time>
      </trkpt>
      <trkpt lat="43.16971" lon="-0.25662">
        <ele>274</ele>
        <time>2013-02-15T17:45:30Z</time>
      </trkpt>
      <trkpt lat="43.16984" lon="-0.25658">
        <ele>271.3</ele>
        <time>2013-02-15T17:45:35Z</time>
      </trkpt>
      <trkpt lat="43.16998" lon="-0.25654">
        <ele>268.7</ele>
        <time>2013-02-15T17:45:40Z</time>
      </trkpt>
      <trkpt lat="43.17012" lon="-0.25649">
        <ele>267.8</ele>
        <time>2013-02-15T17:45:45Z</time>
      </trkpt>
      <trkpt lat="43.17026" lon="-0.25645">
        <ele>266.6</ele>
        <time>2013-02-15T17:45:50Z</time>
      </trkpt>
      <trkpt lat="43.17039" lon="-0.25644">
        <ele>267.1</ele>
        <time>2013-02-15T17:45:55Z</time>
      </trkpt>
      <trkpt lat="43.17045" lon="-0.25641">
        <ele>268.2</ele>
        <time>2013-02-15T17:46:00Z</time>
      </trkpt>
      <trkpt lat="43.17046" lon="-0.2564">
        <ele>268.4</ele>
        <time>2013-02-15T17:46:05Z</time>
      </trkpt>
      <trkpt lat="43.17048" lon="-0.25633">
        <ele>269</ele>
        <time>2013-02-15T17:46:10Z</time>
      </trkpt>
      <trkpt lat="43.17048" lon="-0.2562">
        <ele>269.7</ele>
        <time>2013-02-15T17:46:15Z</time>
      </trkpt>
      <trkpt lat="43.17049" lon="-0.25607">
        <ele>270.2</ele>
        <time>2013-02-15T17:46:20Z</time>
      </trkpt>
      <trkpt lat="43.17049" lon="-0.2559">
        <ele>271.1</ele>
        <time>2013-02-15T17:46:25Z</time>
      </trkpt>
      <trkpt lat="43.1705" lon="-0.25574">
        <ele>271.5</ele>
        <time>2013-02-15T17:46:30Z</time>
      </trkpt>
      <trkpt lat="43.17051" lon="-0.25563">
        <ele>271.4</ele>
        <time>2013-02-15T17:46:35Z</time>
      </trkpt>
      <trkpt lat="43.17052" lon="-0.25547">
        <ele>271.8</ele>
        <time>2013-02-15T17:46:40Z</time>
      </trkpt>
      <trkpt lat="43.17054" lon="-0.25532">
        <ele>272.4</ele>
        <time>2013-02-15T17:46:45Z</time>
      </trkpt>
      <trkpt lat="43.17053" lon="-0.2552">
        <ele>273.4</ele>
        <time>2013-02-15T17:46:50Z</time>
      </trkpt>
      <trkpt lat="43.17055" lon="-0.25516">
        <ele>273.1</ele>
        <time>2013-02-15T17:46:55Z</time>
      </trkpt>
      <trkpt lat="43.17055" lon="-0.25506">
        <ele>273.7</ele>
        <time>2013-02-15T17:47:00Z</time>
      </trkpt>
      <trkpt lat="43.17055" lon="-0.25495">
        <ele>274.5</ele>
        <time>2013-02-15T17:47:05Z</time>
      </trkpt>
      <trkpt lat="43.17056" lon="-0.25485">
        <ele>275.1</ele>
        <time>2013-02-15T17:47:10Z</time>
      </trkpt>
      <trkpt lat="43.17054" lon="-0.25471">
        <ele>276.6</ele>
        <time>2013-02-15T17:47:15Z</time>
      </trkpt>
      <trkpt lat="43.17051" lon="-0.25457">
        <ele>278.2</ele>
        <time>2013-02-15T17:47:20Z</time>
      </trkpt>
      <trkpt lat="43.1705" lon="-0.25443">
        <ele>279.2</ele>
        <time>2013-02-15T17:47:25Z</time>
      </trkpt>
      <trkpt lat="43.17048" lon="-0.25428">
        <ele>280.3</ele>
        <time>2013-02-15T17:47:30Z</time>
      </trkpt>
      <trkpt lat="43.17047" lon="-0.25413">
        <ele>281.3</ele>
        <time>2013-02-15T17:47:35Z</time>
      </trkpt>
      <trkpt lat="43.17046" lon="-0.25402">
        <ele>281.8</ele>
        <time>2013-02-15T17:47:40Z</time>
      </trkpt>
      <trkpt lat="43.17044" lon="-0.25386">
        <ele>282.8</ele>
        <time>2013-02-15T17:47:45Z</time>
      </trkpt>
      <trkpt lat="43.17042" lon="-0.2537">
        <ele>284.2</ele>
        <time>2013-02-15T17:47:50Z</time>
      </trkpt>
      <trkpt lat="43.17042" lon="-0.25354">
        <ele>284.6</ele>
        <time>2013-02-15T17:47:55Z</time>
      </trkpt>
      <trkpt lat="43.17041" lon="-0.25336">
        <ele>285.6</ele>
        <time>2013-02-15T17:48:00Z</time>
      </trkpt>
      <trkpt lat="43.1704" lon="-0.25324">
        <ele>286.2</ele>
        <time>2013-02-15T17:48:05Z</time>
      </trkpt>
      <trkpt lat="43.1704" lon="-0.25317">
        <ele>286.3</ele>
        <time>2013-02-15T17:48:10Z</time>
      </trkpt>
      <trkpt lat="43.17041" lon="-0.25308">
        <ele>286.1</ele>
        <time>2013-02-15T17:48:15Z</time>
      </trkpt>
      <trkpt lat="43.1704" lon="-0.25301">
        <ele>286.8</ele>
        <time>2013-02-15T17:48:20Z</time>
      </trkpt>
      <trkpt lat="43.17041" lon="-0.2529">
        <ele>287.2</ele>
        <time>2013-02-15T17:48:25Z</time>
      </trkpt>
      <trkpt lat="43.1704" lon="-0.25273">
        <ele>288.1</ele>
        <time>2013-02-15T17:48:30Z</time>
      </trkpt>
      <trkpt lat="43.17038" lon="-0.25258">
        <ele>288.4</ele>
        <time>2013-02-15T17:48:35Z</time>
      </trkpt>
      <trkpt lat="43.17037" lon="-0.25244">
        <ele>288.2</ele>
        <time>2013-02-15T17:48:40Z</time>
      </trkpt>
      <trkpt lat="43.17035" lon="-0.25231">
        <ele>287.4</ele>
        <time>2013-02-15T17:48:45Z</time>
      </trkpt>
      <trkpt lat="43.17029" lon="-0.25217">
        <ele>288.1</ele>
        <time>2013-02-15T17:48:50Z</time>
      </trkpt>
      <trkpt lat="43.17024" lon="-0.25203">
        <ele>286.6</ele>
        <time>2013-02-15T17:48:55Z</time>
      </trkpt>
      <trkpt lat="43.17021" lon="-0.25185">
        <ele>284.2</ele>
        <time>2013-02-15T17:49:00Z</time>
      </trkpt>
      <trkpt lat="43.17017" lon="-0.2517">
        <ele>282.8</ele>
        <time>2013-02-15T17:49:05Z</time>
      </trkpt>
      <trkpt lat="43.17014" lon="-0.25153">
        <ele>281.7</ele>
        <time>2013-02-15T17:49:10Z</time>
      </trkpt>
      <trkpt lat="43.17012" lon="-0.2514">
        <ele>280.9</ele>
        <time>2013-02-15T17:49:15Z</time>
      </trkpt>
      <trkpt lat="43.1701" lon="-0.25121">
        <ele>279.9</ele>
        <time>2013-02-15T17:49:20Z</time>
      </trkpt>
      <trkpt lat="43.17005" lon="-0.25101">
        <ele>280.4</ele>
        <time>2013-02-15T17:49:25Z</time>
      </trkpt>
      <trkpt lat="43.17002" lon="-0.25087">
        <ele>281</ele>
        <time>2013-02-15T17:49:30Z</time>
      </trkpt>
      <trkpt lat="43.16996" lon="-0.25073">
        <ele>280.9</ele>
        <time>2013-02-15T17:49:35Z</time>
      </trkpt>
      <trkpt lat="43.1699" lon="-0.25066">
        <ele>281</ele>
        <time>2013-02-15T17:49:40Z</time>
      </trkpt>
      <trkpt lat="43.16989" lon="-0.25061">
        <ele>280.8</ele>
        <time>2013-02-15T17:49:45Z</time>
      </trkpt>
      <trkpt lat="43.16989" lon="-0.25056">
        <ele>280.4</ele>
        <time>2013-02-15T17:49:50Z</time>
      </trkpt>
      <trkpt lat="43.16985" lon="-0.25052">
        <ele>281.1</ele>
        <time>2013-02-15T17:49:55Z</time>
      </trkpt>
      <trkpt lat="43.16981" lon="-0.25047">
        <ele>281.8</ele>
        <time>2013-02-15T17:50:00Z</time>
      </trkpt>
      <trkpt lat="43.16976" lon="-0.25044">
        <ele>282.8</ele>
        <time>2013-02-15T17:50:05Z</time>
      </trkpt>
      <trkpt lat="43.16974" lon="-0.25044">
        <ele>283.5</ele>
        <time>2013-02-15T17:50:10Z</time>
      </trkpt>
      <trkpt lat="43.16969" lon="-0.25039">
        <ele>284.3</ele>
        <time>2013-02-15T17:50:15Z</time>
      </trkpt>
      <trkpt lat="43.16968" lon="-0.25031">
        <ele>284.5</ele>
        <time>2013-02-15T17:50:20Z</time>
      </trkpt>
      <trkpt lat="43.16966" lon="-0.25023">
        <ele>284.5</ele>
        <time>2013-02-15T17:50:25Z</time>
      </trkpt>
      <trkpt lat="43.16965" lon="-0.25013">
        <ele>284.4</ele>
        <time>2013-02-15T17:50:30Z</time>
      </trkpt>
      <trkpt lat="43.16964" lon="-0.25005">
        <ele>284.4</ele>
        <time>2013-02-15T17:50:35Z</time>
      </trkpt>
      <trkpt lat="43.16961" lon="-0.24995">
        <ele>284.4</ele>
        <time>2013-02-15T17:50:40Z</time>
      </trkpt>
      <trkpt lat="43.16957" lon="-0.2499">
        <ele>285.1</ele>
        <time>2013-02-15T17:50:45Z</time>
      </trkpt>
      <trkpt lat="43.16953" lon="-0.24983">
        <ele>285.7</ele>
        <time>2013-02-15T17:50:50Z</time>
      </trkpt>
      <trkpt lat="43.1695" lon="-0.24969">
        <ele>286.6</ele>
        <time>2013-02-15T17:50:55Z</time>
      </trkpt>
      <trkpt lat="43.1695" lon="-0.24958">
        <ele>286.4</ele>
        <time>2013-02-15T17:51:00Z</time>
      </trkpt>
      <trkpt lat="43.16947" lon="-0.24949">
        <ele>287.3</ele>
        <time>2013-02-15T17:51:05Z</time>
      </trkpt>
      <trkpt lat="43.16946" lon="-0.24947">
        <ele>287.5</ele>
        <time>2013-02-15T17:51:10Z</time>
      </trkpt>
      <trkpt lat="43.16946" lon="-0.24944">
        <ele>287.5</ele>
        <time>2013-02-15T17:51:15Z</time>
      </trkpt>
      <trkpt lat="43.16942" lon="-0.24933">
        <ele>288.2</ele>
        <time>2013-02-15T17:51:20Z</time>
      </trkpt>
      <trkpt lat="43.16937" lon="-0.24922">
        <ele>288.5</ele>
        <time>2013-02-15T17:51:25Z</time>
      </trkpt>
      <trkpt lat="43.16933" lon="-0.24905">
        <ele>288.3</ele>
        <time>2013-02-15T17:51:30Z</time>
      </trkpt>
      <trkpt lat="43.16929" lon="-0.24889">
        <ele>288.3</ele>
        <time>2013-02-15T17:51:35Z</time>
      </trkpt>
      <trkpt lat="43.16923" lon="-0.24872">
        <ele>289.2</ele>
        <time>2013-02-15T17:51:40Z</time>
      </trkpt>
      <trkpt lat="43.16916" lon="-0.24854">
        <ele>290.3</ele>
        <time>2013-02-15T17:51:45Z</time>
      </trkpt>
      <trkpt lat="43.16907" lon="-0.24839">
        <ele>289.7</ele>
        <time>2013-02-15T17:51:50Z</time>
      </trkpt>
      <trkpt lat="43.16899" lon="-0.24829">
        <ele>290</ele>
        <time>2013-02-15T17:51:55Z</time>
      </trkpt>
      <trkpt lat="43.16889" lon="-0.24821">
        <ele>291.5</ele>
        <time>2013-02-15T17:52:00Z</time>
      </trkpt>
      <trkpt lat="43.16878" lon="-0.24812">
        <ele>291.5</ele>
        <time>2013-02-15T17:52:05Z</time>
      </trkpt>
      <trkpt lat="43.1687" lon="-0.24803">
        <ele>291.5</ele>
        <time>2013-02-15T17:52:10Z</time>
      </trkpt>
      <trkpt lat="43.16872" lon="-0.24788">
        <ele>290.3</ele>
        <time>2013-02-15T17:52:15Z</time>
      </trkpt>
      <trkpt lat="43.16876" lon="-0.24774">
        <ele>288.2</ele>
        <time>2013-02-15T17:52:20Z</time>
      </trkpt>
      <trkpt lat="43.16875" lon="-0.24761">
        <ele>286.3</ele>
        <time>2013-02-15T17:52:25Z</time>
      </trkpt>
      <trkpt lat="43.16869" lon="-0.24748">
        <ele>285.8</ele>
        <time>2013-02-15T17:52:30Z</time>
      </trkpt>
      <trkpt lat="43.1686" lon="-0.24739">
        <ele>286.3</ele>
        <time>2013-02-15T17:52:35Z</time>
      </trkpt>
      <trkpt lat="43.16852" lon="-0.24729">
        <ele>285</ele>
        <time>2013-02-15T17:52:40Z</time>
      </trkpt>
      <trkpt lat="43.16844" lon="-0.2472">
        <ele>283.5</ele>
        <time>2013-02-15T17:52:45Z</time>
      </trkpt>
      <trkpt lat="43.16833" lon="-0.24708">
        <ele>282.1</ele>
        <time>2013-02-15T17:52:50Z</time>
      </trkpt>
      <trkpt lat="43.16825" lon="-0.24696">
        <ele>281.9</ele>
        <time>2013-02-15T17:52:55Z</time>
      </trkpt>
      <trkpt lat="43.16818" lon="-0.24686">
        <ele>282.5</ele>
        <time>2013-02-15T17:53:00Z</time>
      </trkpt>
      <trkpt lat="43.16809" lon="-0.24676">
        <ele>283.9</ele>
        <time>2013-02-15T17:53:05Z</time>
      </trkpt>
      <trkpt lat="43.16799" lon="-0.24669">
        <ele>284.9</ele>
        <time>2013-02-15T17:53:10Z</time>
      </trkpt>
      <trkpt lat="43.1679" lon="-0.24662">
        <ele>284.8</ele>
        <time>2013-02-15T17:53:15Z</time>
      </trkpt>
      <trkpt lat="43.16778" lon="-0.24651">
        <ele>284.8</ele>
        <time>2013-02-15T17:53:20Z</time>
      </trkpt>
      <trkpt lat="43.16767" lon="-0.24642">
        <ele>284</ele>
        <time>2013-02-15T17:53:25Z</time>
      </trkpt>
      <trkpt lat="43.16758" lon="-0.24635">
        <ele>283.6</ele>
        <time>2013-02-15T17:53:30Z</time>
      </trkpt>
      <trkpt lat="43.16747" lon="-0.24626">
        <ele>283.6</ele>
        <time>2013-02-15T17:53:35Z</time>
      </trkpt>
      <trkpt lat="43.16736" lon="-0.24617">
        <ele>284.6</ele>
        <time>2013-02-15T17:53:40Z</time>
      </trkpt>
      <trkpt lat="43.16725" lon="-0.24609">
        <ele>285.8</ele>
        <time>2013-02-15T17:53:45Z</time>
      </trkpt>
      <trkpt lat="43.16715" lon="-0.24602">
        <ele>285.8</ele>
        <time>2013-02-15T17:53:50Z</time>
      </trkpt>
      <trkpt lat="43.16707" lon="-0.24596">
        <ele>286.2</ele>
        <time>2013-02-15T17:53:55Z</time>
      </trkpt>
      <trkpt lat="43.16699" lon="-0.24589">
        <ele>286.8</ele>
        <time>2013-02-15T17:54:00Z</time>
      </trkpt>
      <trkpt lat="43.16692" lon="-0.24583">
        <ele>286.8</ele>
        <time>2013-02-15T17:54:05Z</time>
      </trkpt>
      <trkpt lat="43.16683" lon="-0.24575">
        <ele>285.6</ele>
        <time>2013-02-15T17:54:10Z</time>
      </trkpt>
      <trkpt lat="43.16672" lon="-0.24569">
        <ele>286.1</ele>
        <time>2013-02-15T17:54:15Z</time>
      </trkpt>
      <trkpt lat="43.16661" lon="-0.24561">
        <ele>287.6</ele>
        <time>2013-02-15T17:54:20Z</time>
      </trkpt>
      <trkpt lat="43.16653" lon="-0.24553">
        <ele>288.4</ele>
        <time>2013-02-15T17:54:25Z</time>
      </trkpt>
      <trkpt lat="43.16646" lon="-0.24544">
        <ele>288.7</ele>
        <time>2013-02-15T17:54:30Z</time>
      </trkpt>
      <trkpt lat="43.16639" lon="-0.24537">
        <ele>289.9</ele>
        <time>2013-02-15T17:54:35Z</time>
      </trkpt>
      <trkpt lat="43.16631" lon="-0.2453">
        <ele>289.2</ele>
        <time>2013-02-15T17:54:40Z</time>
      </trkpt>
      <trkpt lat="43.16621" lon="-0.24521">
        <ele>288.3</ele>
        <time>2013-02-15T17:54:45Z</time>
      </trkpt>
      <trkpt lat="43.16609" lon="-0.24513">
        <ele>287.7</ele>
        <time>2013-02-15T17:54:50Z</time>
      </trkpt>
      <trkpt lat="43.16598" lon="-0.24508">
        <ele>286.8</ele>
        <time>2013-02-15T17:54:55Z</time>
      </trkpt>
      <trkpt lat="43.16587" lon="-0.24504">
        <ele>286.2</ele>
        <time>2013-02-15T17:55:00Z</time>
      </trkpt>
      <trkpt lat="43.16576" lon="-0.245">
        <ele>286.5</ele>
        <time>2013-02-15T17:55:05Z</time>
      </trkpt>
      <trkpt lat="43.16566" lon="-0.24493">
        <ele>286.8</ele>
        <time>2013-02-15T17:55:10Z</time>
      </trkpt>
      <trkpt lat="43.16555" lon="-0.24489">
        <ele>287.2</ele>
        <time>2013-02-15T17:55:15Z</time>
      </trkpt>
      <trkpt lat="43.16546" lon="-0.24486">
        <ele>287.6</ele>
        <time>2013-02-15T17:55:20Z</time>
      </trkpt>
      <trkpt lat="43.16535" lon="-0.24481">
        <ele>288.1</ele>
        <time>2013-02-15T17:55:25Z</time>
      </trkpt>
      <trkpt lat="43.1652" lon="-0.24473">
        <ele>289.2</ele>
        <time>2013-02-15T17:55:30Z</time>
      </trkpt>
      <trkpt lat="43.16512" lon="-0.24467">
        <ele>288.7</ele>
        <time>2013-02-15T17:55:35Z</time>
      </trkpt>
      <trkpt lat="43.16504" lon="-0.24464">
        <ele>288.9</ele>
        <time>2013-02-15T17:55:40Z</time>
      </trkpt>
      <trkpt lat="43.16493" lon="-0.24458">
        <ele>289</ele>
        <time>2013-02-15T17:55:45Z</time>
      </trkpt>
      <trkpt lat="43.16484" lon="-0.24453">
        <ele>289.4</ele>
        <time>2013-02-15T17:55:50Z</time>
      </trkpt>
      <trkpt lat="43.16474" lon="-0.24446">
        <ele>289.8</ele>
        <time>2013-02-15T17:55:55Z</time>
      </trkpt>
      <trkpt lat="43.16462" lon="-0.24437">
        <ele>287.5</ele>
        <time>2013-02-15T17:56:00Z</time>
      </trkpt>
      <trkpt lat="43.16451" lon="-0.24433">
        <ele>286.7</ele>
        <time>2013-02-15T17:56:05Z</time>
      </trkpt>
      <trkpt lat="43.16441" lon="-0.24433">
        <ele>286.7</ele>
        <time>2013-02-15T17:56:10Z</time>
      </trkpt>
      <trkpt lat="43.16428" lon="-0.24433">
        <ele>286.2</ele>
        <time>2013-02-15T17:56:15Z</time>
      </trkpt>
      <trkpt lat="43.16417" lon="-0.24427">
        <ele>284.3</ele>
        <time>2013-02-15T17:56:20Z</time>
      </trkpt>
      <trkpt lat="43.16406" lon="-0.24424">
        <ele>283.1</ele>
        <time>2013-02-15T17:56:25Z</time>
      </trkpt>
      <trkpt lat="43.16393" lon="-0.24425">
        <ele>282.7</ele>
        <time>2013-02-15T17:56:30Z</time>
      </trkpt>
      <trkpt lat="43.16381" lon="-0.24429">
        <ele>282</ele>
        <time>2013-02-15T17:56:35Z</time>
      </trkpt>
      <trkpt lat="43.16369" lon="-0.24434">
        <ele>281.3</ele>
        <time>2013-02-15T17:56:40Z</time>
      </trkpt>
      <trkpt lat="43.16361" lon="-0.24435">
        <ele>280.3</ele>
        <time>2013-02-15T17:56:45Z</time>
      </trkpt>
      <trkpt lat="43.16348" lon="-0.24436">
        <ele>280.2</ele>
        <time>2013-02-15T17:56:50Z</time>
      </trkpt>
      <trkpt lat="43.16335" lon="-0.24436">
        <ele>279.8</ele>
        <time>2013-02-15T17:56:55Z</time>
      </trkpt>
      <trkpt lat="43.1632" lon="-0.24434">
        <ele>279.9</ele>
        <time>2013-02-15T17:57:00Z</time>
      </trkpt>
      <trkpt lat="43.16308" lon="-0.24433">
        <ele>280.3</ele>
        <time>2013-02-15T17:57:05Z</time>
      </trkpt>
      <trkpt lat="43.16298" lon="-0.24436">
        <ele>280.6</ele>
        <time>2013-02-15T17:57:10Z</time>
      </trkpt>
      <trkpt lat="43.1629" lon="-0.24438">
        <ele>280.7</ele>
        <time>2013-02-15T17:57:15Z</time>
      </trkpt>
      <trkpt lat="43.16279" lon="-0.2444">
        <ele>280.6</ele>
        <time>2013-02-15T17:57:20Z</time>
      </trkpt>
      <trkpt lat="43.16266" lon="-0.24448">
        <ele>281.7</ele>
        <time>2013-02-15T17:57:25Z</time>
      </trkpt>
      <trkpt lat="43.16255" lon="-0.2445">
        <ele>282.1</ele>
        <time>2013-02-15T17:57:30Z</time>
      </trkpt>
      <trkpt lat="43.16242" lon="-0.24451">
        <ele>282.2</ele>
        <time>2013-02-15T17:57:35Z</time>
      </trkpt>
      <trkpt lat="43.16228" lon="-0.24452">
        <ele>282.1</ele>
        <time>2013-02-15T17:57:40Z</time>
      </trkpt>
      <trkpt lat="43.16219" lon="-0.24456">
        <ele>282.6</ele>
        <time>2013-02-15T17:57:45Z</time>
      </trkpt>
      <trkpt lat="43.16208" lon="-0.24458">
        <ele>282.6</ele>
        <time>2013-02-15T17:57:50Z</time>
      </trkpt>
      <trkpt lat="43.162" lon="-0.24461">
        <ele>283.1</ele>
        <time>2013-02-15T17:57:55Z</time>
      </trkpt>
      <trkpt lat="43.16189" lon="-0.24461">
        <ele>282.8</ele>
        <time>2013-02-15T17:58:00Z</time>
      </trkpt>
      <trkpt lat="43.16179" lon="-0.24461">
        <ele>282.6</ele>
        <time>2013-02-15T17:58:05Z</time>
      </trkpt>
      <trkpt lat="43.16165" lon="-0.2446">
        <ele>282.1</ele>
        <time>2013-02-15T17:58:10Z</time>
      </trkpt>
      <trkpt lat="43.16152" lon="-0.24458">
        <ele>280.9</ele>
        <time>2013-02-15T17:58:15Z</time>
      </trkpt>
      <trkpt lat="43.16142" lon="-0.24457">
        <ele>280.1</ele>
        <time>2013-02-15T17:58:20Z</time>
      </trkpt>
      <trkpt lat="43.16132" lon="-0.24454">
        <ele>279.8</ele>
        <time>2013-02-15T17:58:25Z</time>
      </trkpt>
      <trkpt lat="43.16132" lon="-0.2444">
        <ele>279.1</ele>
        <time>2013-02-15T17:58:30Z</time>
      </trkpt>
      <trkpt lat="43.16133" lon="-0.24426">
        <ele>278.6</ele>
        <time>2013-02-15T17:58:35Z</time>
      </trkpt>
      <trkpt lat="43.16134" lon="-0.24407">
        <ele>278.1</ele>
        <time>2013-02-15T17:58:40Z</time>
      </trkpt>
      <trkpt lat="43.16133" lon="-0.24391">
        <ele>278</ele>
        <time>2013-02-15T17:58:45Z</time>
      </trkpt>
      <trkpt lat="43.16133" lon="-0.24379">
        <ele>277.7</ele>
        <time>2013-02-15T17:58:50Z</time>
      </trkpt>
      <trkpt lat="43.16134" lon="-0.24361">
        <ele>277.2</ele>
        <time>2013-02-15T17:58:55Z</time>
      </trkpt>
      <trkpt lat="43.16136" lon="-0.24343">
        <ele>276.5</ele>
        <time>2013-02-15T17:59:00Z</time>
      </trkpt>
      <trkpt lat="43.16137" lon="-0.24325">
        <ele>275.5</ele>
        <time>2013-02-15T17:59:05Z</time>
      </trkpt>
      <trkpt lat="43.16137" lon="-0.24306">
        <ele>274</ele>
        <time>2013-02-15T17:59:10Z</time>
      </trkpt>
      <trkpt lat="43.16137" lon="-0.24284">
        <ele>272.5</ele>
        <time>2013-02-15T17:59:15Z</time>
      </trkpt>
      <trkpt lat="43.16136" lon="-0.24265">
        <ele>272.1</ele>
        <time>2013-02-15T17:59:20Z</time>
      </trkpt>
      <trkpt lat="43.16136" lon="-0.24252">
        <ele>272</ele>
        <time>2013-02-15T17:59:25Z</time>
      </trkpt>
      <trkpt lat="43.16136" lon="-0.24236">
        <ele>272</ele>
        <time>2013-02-15T17:59:30Z</time>
      </trkpt>
      <trkpt lat="43.16136" lon="-0.24219">
        <ele>271.9</ele>
        <time>2013-02-15T17:59:35Z</time>
      </trkpt>
      <trkpt lat="43.16137" lon="-0.242">
        <ele>271.2</ele>
        <time>2013-02-15T17:59:40Z</time>
      </trkpt>
      <trkpt lat="43.16136" lon="-0.24181">
        <ele>271</ele>
        <time>2013-02-15T17:59:45Z</time>
      </trkpt>
      <trkpt lat="43.16136" lon="-0.24165">
        <ele>271</ele>
        <time>2013-02-15T17:59:50Z</time>
      </trkpt>
      <trkpt lat="43.16135" lon="-0.24151">
        <ele>270.9</ele>
        <time>2013-02-15T17:59:55Z</time>
      </trkpt>
      <trkpt lat="43.16136" lon="-0.24134">
        <ele>270.5</ele>
        <time>2013-02-15T18:00:00Z</time>
      </trkpt>
      <trkpt lat="43.16139" lon="-0.24118">
        <ele>269.5</ele>
        <time>2013-02-15T18:00:05Z</time>
      </trkpt>
      <trkpt lat="43.16142" lon="-0.24101">
        <ele>268.6</ele>
        <time>2013-02-15T18:00:10Z</time>
      </trkpt>
      <trkpt lat="43.16144" lon="-0.24081">
        <ele>268.1</ele>
        <time>2013-02-15T18:00:15Z</time>
      </trkpt>
      <trkpt lat="43.16139" lon="-0.24065">
        <ele>268.7</ele>
        <time>2013-02-15T18:00:20Z</time>
      </trkpt>
      <trkpt lat="43.16133" lon="-0.24056">
        <ele>269</ele>
        <time>2013-02-15T18:00:25Z</time>
      </trkpt>
      <trkpt lat="43.16123" lon="-0.24045">
        <ele>269</ele>
        <time>2013-02-15T18:00:30Z</time>
      </trkpt>
      <trkpt lat="43.16113" lon="-0.24038">
        <ele>269</ele>
        <time>2013-02-15T18:00:35Z</time>
      </trkpt>
      <trkpt lat="43.16105" lon="-0.2403">
        <ele>269.2</ele>
        <time>2013-02-15T18:00:40Z</time>
      </trkpt>
      <trkpt lat="43.16097" lon="-0.2402">
        <ele>269.3</ele>
        <time>2013-02-15T18:00:45Z</time>
      </trkpt>
      <trkpt lat="43.16089" lon="-0.24003">
        <ele>269.1</ele>
        <time>2013-02-15T18:00:50Z</time>
      </trkpt>
      <trkpt lat="43.16081" lon="-0.23988">
        <ele>269</ele>
        <time>2013-02-15T18:00:55Z</time>
      </trkpt>
      <trkpt lat="43.16075" lon="-0.23976">
        <ele>269</ele>
        <time>2013-02-15T18:01:00Z</time>
      </trkpt>
      <trkpt lat="43.16067" lon="-0.23964">
        <ele>269</ele>
        <time>2013-02-15T18:01:05Z</time>
      </trkpt>
      <trkpt lat="43.16057" lon="-0.23955">
        <ele>269</ele>
        <time>2013-02-15T18:01:10Z</time>
      </trkpt>
      <trkpt lat="43.16046" lon="-0.23944">
        <ele>269</ele>
        <time>2013-02-15T18:01:15Z</time>
      </trkpt>
      <trkpt lat="43.16033" lon="-0.23934">
        <ele>269.3</ele>
        <time>2013-02-15T18:01:20Z</time>
      </trkpt>
      <trkpt lat="43.16022" lon="-0.23927">
        <ele>269.7</ele>
        <time>2013-02-15T18:01:25Z</time>
      </trkpt>
      <trkpt lat="43.16012" lon="-0.23925">
        <ele>269.9</ele>
        <time>2013-02-15T18:01:30Z</time>
      </trkpt>
      <trkpt lat="43.15999" lon="-0.23923">
        <ele>270</ele>
        <time>2013-02-15T18:01:35Z</time>
      </trkpt>
      <trkpt lat="43.15988" lon="-0.23922">
        <ele>270.4</ele>
        <time>2013-02-15T18:01:40Z</time>
      </trkpt>
      <trkpt lat="43.15983" lon="-0.23924">
        <ele>270.6</ele>
        <time>2013-02-15T18:01:45Z</time>
      </trkpt>
      <trkpt lat="43.1598" lon="-0.23923">
        <ele>270.7</ele>
        <time>2013-02-15T18:01:50Z</time>
      </trkpt>
      <trkpt lat="43.15975" lon="-0.23922">
        <ele>270.9</ele>
        <time>2013-02-15T18:01:55Z</time>
      </trkpt>
      <trkpt lat="43.15971" lon="-0.23919">
        <ele>271</ele>
        <time>2013-02-15T18:02:00Z</time>
      </trkpt>
      <trkpt lat="43.15971" lon="-0.23919">
        <ele>271</ele>
        <time>2013-02-15T18:02:05Z</time>
      </trkpt>
      <trkpt lat="43.15969" lon="-0.23919">
        <ele>271</ele>
        <time>2013-02-15T18:02:10Z</time>
      </trkpt>
      <trkpt lat="43.15967" lon="-0.23919">
        <ele>271</ele>
        <time>2013-02-15T18:02:15Z</time>
      </trkpt>
      <trkpt lat="43.15972" lon="-0.23925">
        <ele>271</ele>
        <time>2013-02-15T18:02:20Z</time>
      </trkpt>
      <trkpt lat="43.1597" lon="-0.23932">
        <ele>271</ele>
        <time>2013-02-15T18:02:25Z</time>
      </trkpt>
      <trkpt lat="43.15968" lon="-0.23939">
        <ele>271</ele>
        <time>2013-02-15T18:02:30Z</time>
      </trkpt>
      <trkpt lat="43.15967" lon="-0.23941">
        <ele>271</ele>
        <time>2013-02-15T18:02:35Z</time>
      </trkpt>
      <trkpt lat="43.15968" lon="-0.2394">
        <ele>271</ele>
        <time>2013-02-15T18:02:40Z</time>
      </trkpt>
      <trkpt lat="43.15972" lon="-0.23932">
        <ele>271</ele>
        <time>2013-02-15T18:02:45Z</time>
      </trkpt>
      <trkpt lat="43.15974" lon="-0.23923">
        <ele>270.9</ele>
        <time>2013-02-15T18:02:50Z</time>
      </trkpt>
      <trkpt lat="43.15969" lon="-0.23916">
        <ele>271</ele>
        <time>2013-02-15T18:02:55Z</time>
      </trkpt>
      <trkpt lat="43.15963" lon="-0.23912">
        <ele>271</ele>
        <time>2013-02-15T18:03:00Z</time>
      </trkpt>
      <trkpt lat="43.15958" lon="-0.23907">
        <ele>271</ele>
        <time>2013-02-15T18:03:05Z</time>
      </trkpt>
      <trkpt lat="43.15955" lon="-0.23903">
        <ele>271</ele>
        <time>2013-02-15T18:03:10Z</time>
      </trkpt>
      <trkpt lat="43.15956" lon="-0.23897">
        <ele>271</ele>
        <time>2013-02-15T18:03:15Z</time>
      </trkpt>
      <trkpt lat="43.15958" lon="-0.23889">
        <ele>271</ele>
        <time>2013-02-15T18:03:20Z</time>
      </trkpt>
      <trkpt lat="43.15961" lon="-0.23882">
        <ele>270.6</ele>
        <time>2013-02-15T18:03:25Z</time>
      </trkpt>
      <trkpt lat="43.15965" lon="-0.23873">
        <ele>270</ele>
        <time>2013-02-15T18:03:30Z</time>
      </trkpt>
      <trkpt lat="43.15969" lon="-0.23865">
        <ele>269.4</ele>
        <time>2013-02-15T18:03:35Z</time>
      </trkpt>
      <trkpt lat="43.15972" lon="-0.23859">
        <ele>269.1</ele>
        <time>2013-02-15T18:03:40Z</time>
      </trkpt>
      <trkpt lat="43.15975" lon="-0.23851">
        <ele>269.4</ele>
        <time>2013-02-15T18:03:45Z</time>
      </trkpt>
      <trkpt lat="43.15979" lon="-0.23844">
        <ele>269.6</ele>
        <time>2013-02-15T18:03:50Z</time>
      </trkpt>
      <trkpt lat="43.15984" lon="-0.23836">
        <ele>269.9</ele>
        <time>2013-02-15T18:03:55Z</time>
      </trkpt>
      <trkpt lat="43.15988" lon="-0.23826">
        <ele>270.3</ele>
        <time>2013-02-15T18:04:00Z</time>
      </trkpt>
      <trkpt lat="43.15992" lon="-0.23818">
        <ele>270.6</ele>
        <time>2013-02-15T18:04:05Z</time>
      </trkpt>
      <trkpt lat="43.15994" lon="-0.23811">
        <ele>270.8</ele>
        <time>2013-02-15T18:04:10Z</time>
      </trkpt>
      <trkpt lat="43.15995" lon="-0.23801">
        <ele>271</ele>
        <time>2013-02-15T18:04:15Z</time>
      </trkpt>
      <trkpt lat="43.15997" lon="-0.23792">
        <ele>271</ele>
        <time>2013-02-15T18:04:20Z</time>
      </trkpt>
      <trkpt lat="43.16" lon="-0.23783">
        <ele>271</ele>
        <time>2013-02-15T18:04:25Z</time>
      </trkpt>
      <trkpt lat="43.16004" lon="-0.23773">
        <ele>270.8</ele>
        <time>2013-02-15T18:04:30Z</time>
      </trkpt>
      <trkpt lat="43.16006" lon="-0.23764">
        <ele>270.8</ele>
        <time>2013-02-15T18:04:35Z</time>
      </trkpt>
      <trkpt lat="43.16009" lon="-0.23755">
        <ele>270.7</ele>
        <time>2013-02-15T18:04:40Z</time>
      </trkpt>
      <trkpt lat="43.16011" lon="-0.23748">
        <ele>270.6</ele>
        <time>2013-02-15T18:04:45Z</time>
      </trkpt>
      <trkpt lat="43.16014" lon="-0.23739">
        <ele>270.5</ele>
        <time>2013-02-15T18:04:50Z</time>
      </trkpt>
      <trkpt lat="43.16016" lon="-0.2373">
        <ele>270.4</ele>
        <time>2013-02-15T18:04:55Z</time>
      </trkpt>
      <trkpt lat="43.16016" lon="-0.23725">
        <ele>270.4</ele>
        <time>2013-02-15T18:05:00Z</time>
      </trkpt>
      <trkpt lat="43.16015" lon="-0.23725">
        <ele>270.5</ele>
        <time>2013-02-15T18:05:05Z</time>
      </trkpt>
      <trkpt lat="43.16014" lon="-0.23728">
        <ele>270.5</ele>
        <time>2013-02-15T18:05:10Z</time>
      </trkpt>
      <trkpt lat="43.16014" lon="-0.23728">
        <ele>270.5</ele>
        <time>2013-02-15T18:05:15Z</time>
      </trkpt>
      <trkpt lat="43.16014" lon="-0.23727">
        <ele>270.5</ele>
        <time>2013-02-15T18:05:20Z</time>
      </trkpt>
      <trkpt lat="43.16013" lon="-0.23725">
        <ele>270.5</ele>
        <time>2013-02-15T18:05:25Z</time>
      </trkpt>
      <trkpt lat="43.16015" lon="-0.2372">
        <ele>270.5</ele>
        <time>2013-02-15T18:05:30Z</time>
      </trkpt>
    </trkseg>
  </trk>
</gpx>